ANZ2845 SAEZ-NZAA
Flight info
| Callsign | ANZ2845 |
|---|---|
| Flight time | N/A |
| Altitude | 38000 |
| Route | TORUL1 TORUL UT654 BAR UM658 MON 4690W 50W00 52W10 54W20 54W31 53W50 51W60 47W70 CI Q611 WN UPLUD RUSIL Y127 OPABI Q277 DAVEE DAVE7B |
| Aircraft | B789/H-V/N |
Departure
| Time | 2026-04-29 03:08 |
|---|---|
| Airport | Ezeiza International Airport - Ministro Pistarini (SAEZ) |
Arrival
| Time | N/A |
|---|---|
| Airport | Auckland International Airport (NZAA) |
| Time | Latitude | Longitude | Altitude | Speed | Heading |
|---|---|---|---|---|---|
| 2026-04-29 02:37 | -34.81558 | -58.53919 | 84 ft | 0 kts | 326° |
| 2026-04-29 02:56 | -34.81564 | -58.53915 | 84 ft | 2 kts | 326° |
| 2026-04-29 02:56 | -34.81578 | -58.53903 | 84 ft | 3 kts | 326° |
| 2026-04-29 02:56 | -34.81594 | -58.53888 | 84 ft | 3 kts | 310° |
| 2026-04-29 02:57 | -34.81604 | -58.53867 | 84 ft | 3 kts | 288° |
| 2026-04-29 02:57 | -34.81608 | -58.53842 | 84 ft | 3 kts | 268° |
| 2026-04-29 02:57 | -34.81604 | -58.53818 | 84 ft | 3 kts | 249° |
| 2026-04-29 02:57 | -34.81597 | -58.53800 | 84 ft | 0 kts | 237° |
| 2026-04-29 02:58 | -34.81595 | -58.53796 | 84 ft | 2 kts | 237° |
| 2026-04-29 02:58 | -34.81586 | -58.53780 | 84 ft | 3 kts | 237° |
| 2026-04-29 02:58 | -34.81577 | -58.53763 | 84 ft | 0 kts | 237° |
| 2026-04-29 02:58 | -34.81577 | -58.53764 | 84 ft | 0 kts | 237° |
| 2026-04-29 02:59 | -34.81588 | -58.53773 | 84 ft | 4 kts | 208° |
| 2026-04-29 03:00 | -34.81603 | -58.53779 | 84 ft | 2 kts | 198° |
| 2026-04-29 03:00 | -34.81636 | -58.53778 | 84 ft | 8 kts | 166° |
| 2026-04-29 03:00 | -34.81679 | -58.53761 | 84 ft | 7 kts | 158° |
| 2026-04-29 03:00 | -34.81720 | -58.53738 | 84 ft | 6 kts | 153° |
| 2026-04-29 03:01 | -34.81752 | -58.53719 | 84 ft | 4 kts | 154° |
| 2026-04-29 03:01 | -34.81778 | -58.53703 | 84 ft | 5 kts | 154° |
| 2026-04-29 03:01 | -34.81820 | -58.53678 | 84 ft | 9 kts | 154° |
| 2026-04-29 03:01 | -34.81890 | -58.53625 | 84 ft | 13 kts | 128° |
| 2026-04-29 03:02 | -34.81921 | -58.53513 | 84 ft | 15 kts | 104° |
| 2026-04-29 03:02 | -34.81948 | -58.53382 | 84 ft | 17 kts | 104° |
| 2026-04-29 03:02 | -34.81977 | -58.53237 | 84 ft | 19 kts | 104° |
| 2026-04-29 03:02 | -34.82010 | -58.53076 | 84 ft | 20 kts | 103° |
| 2026-04-29 03:03 | -34.82044 | -58.52899 | 84 ft | 22 kts | 103° |
| 2026-04-29 03:03 | -34.82083 | -58.52710 | 84 ft | 24 kts | 104° |
| 2026-04-29 03:03 | -34.82124 | -58.52506 | 84 ft | 26 kts | 103° |
| 2026-04-29 03:03 | -34.82166 | -58.52292 | 84 ft | 27 kts | 103° |
| 2026-04-29 03:04 | -34.82212 | -58.52058 | 84 ft | 29 kts | 104° |
| 2026-04-29 03:04 | -34.82260 | -58.51850 | 84 ft | 17 kts | 105° |
| 2026-04-29 03:04 | -34.82301 | -58.51782 | 84 ft | 7 kts | 178° |
| 2026-04-29 03:04 | -34.82347 | -58.51790 | 84 ft | 6 kts | 190° |
| 2026-04-29 03:05 | -34.82382 | -58.51798 | 84 ft | 3 kts | 190° |
| 2026-04-29 03:05 | -34.82388 | -58.51800 | 84 ft | 0 kts | 190° |
| 2026-04-29 03:06 | -34.82389 | -58.51800 | 84 ft | 2 kts | 190° |
| 2026-04-29 03:06 | -34.82463 | -58.51818 | 84 ft | 14 kts | 194° |
| 2026-04-29 03:07 | -34.82521 | -58.51871 | 84 ft | 8 kts | 255° |
| 2026-04-29 03:07 | -34.82518 | -58.51928 | 84 ft | 6 kts | 283° |
| 2026-04-29 03:07 | -34.82467 | -58.52211 | 84 ft | 70 kts | 282° |
| 2026-04-29 03:07 | -34.82303 | -58.53118 | 84 ft | 149 kts | 282° |
| 2026-04-29 03:08 | -34.82024 | -58.54669 | 89 ft | 220 kts | 282° |
| 2026-04-29 03:08 | -34.81659 | -58.56695 | 438 ft | 268 kts | 282° |
| 2026-04-29 03:08 | -34.81231 | -58.59070 | 1396 ft | 305 kts | 282° |
| 2026-04-29 03:08 | -34.80759 | -58.61692 | 2876 ft | 327 kts | 282° |
| 2026-04-29 03:09 | -34.80325 | -58.64480 | 4406 ft | 350 kts | 278° |
| 2026-04-29 03:09 | -34.80471 | -58.67547 | 5768 ft | 377 kts | 261° |
| 2026-04-29 03:09 | -34.81445 | -58.70584 | 7235 ft | 398 kts | 242° |
| 2026-04-29 03:09 | -34.82929 | -58.73357 | 9415 ft | 382 kts | 236° |
| 2026-04-29 03:10 | -34.84513 | -58.75878 | 11459 ft | 368 kts | 234° |
| 2026-04-29 03:10 | -34.86139 | -58.78315 | 12381 ft | 374 kts | 232° |
| 2026-04-29 03:10 | -34.87816 | -58.80747 | 13413 ft | 372 kts | 232° |
| 2026-04-29 03:10 | -34.89492 | -58.83142 | 14406 ft | 371 kts | 231° |
| 2026-04-29 03:11 | -34.90723 | -58.84891 | 15135 ft | 372 kts | 231° |
| 2026-04-29 03:11 | -34.92407 | -58.87279 | 16129 ft | 376 kts | 231° |
| 2026-04-29 03:11 | -34.94131 | -58.89720 | 17138 ft | 380 kts | 231° |
| 2026-04-29 03:11 | -34.95857 | -58.92166 | 18137 ft | 385 kts | 231° |
| 2026-04-29 03:12 | -34.97616 | -58.94660 | 19142 ft | 391 kts | 231° |
| 2026-04-29 03:12 | -34.99417 | -58.97218 | 20156 ft | 397 kts | 231° |
| 2026-04-29 03:12 | -35.01249 | -58.99745 | 21081 ft | 409 kts | 230° |
| 2026-04-29 03:12 | -35.01672 | -59.00313 | 21244 ft | 414 kts | 230° |
| 2026-04-29 03:13 | -35.02889 | -59.01934 | 21669 ft | 428 kts | 229° |
| 2026-04-29 03:13 | -35.04965 | -59.04664 | 22327 ft | 440 kts | 229° |
| 2026-04-29 03:13 | -35.07036 | -59.07360 | 22949 ft | 431 kts | 229° |
| 2026-04-29 03:13 | -35.09080 | -59.10005 | 23565 ft | 427 kts | 229° |
| 2026-04-29 03:14 | -35.11122 | -59.12645 | 24119 ft | 434 kts | 229° |
| 2026-04-29 03:14 | -35.11857 | -59.13596 | 24302 ft | 437 kts | 229° |
| 2026-04-29 03:15 | -35.13863 | -59.16193 | 24789 ft | 442 kts | 229° |
| 2026-04-29 03:15 | -35.15970 | -59.18926 | 25290 ft | 444 kts | 229° |
| 2026-04-29 03:15 | -35.17471 | -59.20876 | 25645 ft | 446 kts | 229° |
| 2026-04-29 03:15 | -35.19591 | -59.23632 | 26144 ft | 449 kts | 229° |
| 2026-04-29 03:16 | -35.21728 | -59.26418 | 26643 ft | 453 kts | 229° |
| 2026-04-29 03:16 | -35.23912 | -59.29269 | 27150 ft | 457 kts | 229° |
| 2026-04-29 03:16 | -35.26077 | -59.32103 | 27650 ft | 460 kts | 229° |
| 2026-04-29 03:16 | -35.28250 | -59.34953 | 28147 ft | 463 kts | 229° |
| 2026-04-29 03:17 | -35.30471 | -59.37871 | 28652 ft | 466 kts | 229° |
| 2026-04-29 03:17 | -35.32667 | -59.40763 | 29131 ft | 469 kts | 229° |
| 2026-04-29 03:17 | -35.34915 | -59.43729 | 29537 ft | 474 kts | 229° |
| 2026-04-29 03:17 | -35.37141 | -59.46713 | 29918 ft | 478 kts | 230° |
| 2026-04-29 03:18 | -35.39303 | -59.49851 | 30299 ft | 480 kts | 232° |
| 2026-04-29 03:18 | -35.41369 | -59.53044 | 30674 ft | 482 kts | 234° |
| 2026-04-29 03:18 | -35.42730 | -59.55224 | 30925 ft | 483 kts | 234° |
| 2026-04-29 03:18 | -35.44758 | -59.58554 | 31303 ft | 485 kts | 235° |
| 2026-04-29 03:19 | -35.46767 | -59.61921 | 31681 ft | 487 kts | 236° |
| 2026-04-29 03:19 | -35.48743 | -59.65275 | 32053 ft | 487 kts | 236° |
| 2026-04-29 03:19 | -35.50714 | -59.68646 | 32426 ft | 486 kts | 236° |
| 2026-04-29 03:19 | -35.52672 | -59.72013 | 32798 ft | 486 kts | 236° |
| 2026-04-29 03:20 | -35.54638 | -59.75403 | 33172 ft | 486 kts | 236° |
| 2026-04-29 03:20 | -35.56591 | -59.78777 | 33544 ft | 486 kts | 236° |
| 2026-04-29 03:20 | -35.58543 | -59.82153 | 33917 ft | 486 kts | 236° |
| 2026-04-29 03:20 | -35.60509 | -59.85557 | 34293 ft | 486 kts | 236° |
| 2026-04-29 03:21 | -35.62455 | -59.88928 | 34633 ft | 488 kts | 236° |
| 2026-04-29 03:21 | -35.64432 | -59.92353 | 34904 ft | 490 kts | 236° |
| 2026-04-29 03:21 | -35.66390 | -59.95748 | 35155 ft | 490 kts | 236° |
| 2026-04-29 03:21 | -35.68371 | -59.99184 | 35406 ft | 490 kts | 236° |
| 2026-04-29 03:22 | -35.70329 | -60.02580 | 35652 ft | 489 kts | 236° |
| 2026-04-29 03:22 | -35.72309 | -60.06018 | 35902 ft | 488 kts | 236° |
| 2026-04-29 03:22 | -35.74257 | -60.09402 | 36149 ft | 487 kts | 236° |
| 2026-04-29 03:22 | -35.76234 | -60.12838 | 36399 ft | 488 kts | 236° |
| 2026-04-29 03:23 | -35.78148 | -60.16167 | 36642 ft | 489 kts | 236° |
| 2026-04-29 03:23 | -35.79418 | -60.18379 | 36804 ft | 489 kts | 236° |
| 2026-04-29 03:23 | -35.81368 | -60.21776 | 37051 ft | 490 kts | 236° |
| 2026-04-29 03:23 | -35.83351 | -60.25233 | 37302 ft | 490 kts | 236° |
| 2026-04-29 03:24 | -35.85305 | -60.28644 | 37548 ft | 491 kts | 236° |
| 2026-04-29 03:24 | -35.87282 | -60.32098 | 37787 ft | 491 kts | 236° |
| 2026-04-29 03:24 | -35.89250 | -60.35538 | 37930 ft | 493 kts | 236° |
| 2026-04-29 03:25 | -35.93235 | -60.42519 | 37997 ft | 499 kts | 236° |
| 2026-04-29 03:25 | -35.97225 | -60.49521 | 37996 ft | 498 kts | 236° |
| 2026-04-29 03:26 | -36.01201 | -60.56510 | 37995 ft | 495 kts | 236° |
| 2026-04-29 03:26 | -36.04430 | -60.62197 | 37995 ft | 494 kts | 236° |
| 2026-04-29 03:27 | -36.08354 | -60.69127 | 37996 ft | 495 kts | 237° |
| 2026-04-29 03:27 | -36.12309 | -60.76134 | 37996 ft | 496 kts | 237° |
| 2026-04-29 03:28 | -36.16236 | -60.83117 | 37996 ft | 496 kts | 237° |
| 2026-04-29 03:28 | -36.20179 | -60.90150 | 37996 ft | 496 kts | 237° |
| 2026-04-29 03:29 | -36.24095 | -60.97156 | 37996 ft | 496 kts | 237° |
| 2026-04-29 03:29 | -36.28024 | -61.04206 | 37996 ft | 496 kts | 237° |
| 2026-04-29 03:30 | -36.31936 | -61.11244 | 37996 ft | 496 kts | 237° |
| 2026-04-29 03:30 | -36.34729 | -61.16283 | 37996 ft | 496 kts | 237° |
| 2026-04-29 03:31 | -36.40598 | -61.26880 | 37996 ft | 496 kts | 237° |
| 2026-04-29 03:31 | -36.44483 | -61.33905 | 37996 ft | 496 kts | 237° |
| 2026-04-29 03:32 | -36.48387 | -61.40979 | 37996 ft | 496 kts | 237° |
| 2026-04-29 03:32 | -36.52299 | -61.48084 | 37996 ft | 496 kts | 237° |
| 2026-04-29 03:33 | -36.56151 | -61.55097 | 37996 ft | 496 kts | 237° |
| 2026-04-29 03:33 | -36.60070 | -61.62248 | 37996 ft | 496 kts | 237° |
| 2026-04-29 03:34 | -36.63937 | -61.69322 | 37996 ft | 496 kts | 237° |
| 2026-04-29 03:34 | -36.67809 | -61.76421 | 37996 ft | 496 kts | 237° |
| 2026-04-29 03:35 | -36.71683 | -61.83538 | 37996 ft | 496 kts | 237° |
| 2026-04-29 03:35 | -36.75539 | -61.90636 | 37996 ft | 496 kts | 237° |
| 2026-04-29 03:36 | -36.79415 | -61.97790 | 37996 ft | 496 kts | 237° |
| 2026-04-29 03:36 | -36.83272 | -62.04922 | 37996 ft | 496 kts | 237° |
| 2026-04-29 03:37 | -36.87116 | -62.12046 | 37996 ft | 496 kts | 237° |
| 2026-04-29 03:37 | -36.90966 | -62.19196 | 37996 ft | 496 kts | 238° |
| 2026-04-29 03:38 | -36.94813 | -62.26357 | 37996 ft | 496 kts | 238° |
| 2026-04-29 03:38 | -36.98642 | -62.33498 | 37996 ft | 495 kts | 238° |
| 2026-04-29 03:39 | -37.02467 | -62.40648 | 37996 ft | 495 kts | 238° |
| 2026-04-29 03:39 | -37.06303 | -62.47834 | 37996 ft | 495 kts | 238° |
| 2026-04-29 03:40 | -37.09083 | -62.53051 | 37996 ft | 495 kts | 238° |
| 2026-04-29 03:40 | -37.12074 | -62.58674 | 37996 ft | 495 kts | 238° |
| 2026-04-29 03:41 | -37.14539 | -62.63315 | 37996 ft | 495 kts | 238° |
| 2026-04-29 03:42 | -37.18357 | -62.70518 | 37996 ft | 495 kts | 238° |
| 2026-04-29 03:42 | -37.22170 | -62.77728 | 37996 ft | 495 kts | 238° |
| 2026-04-29 03:43 | -37.25958 | -62.84907 | 37996 ft | 495 kts | 238° |
| 2026-04-29 03:43 | -37.29779 | -62.92166 | 37996 ft | 495 kts | 238° |
| 2026-04-29 03:44 | -37.31388 | -62.95231 | 37996 ft | 495 kts | 238° |
| 2026-04-29 03:44 | -37.35175 | -63.02441 | 37996 ft | 495 kts | 238° |
| 2026-04-29 03:45 | -37.38083 | -63.07966 | 37996 ft | 495 kts | 238° |
| 2026-04-29 03:45 | -37.41183 | -63.13861 | 37996 ft | 495 kts | 238° |
| 2026-04-29 03:46 | -37.44969 | -63.21069 | 37996 ft | 495 kts | 238° |
| 2026-04-29 03:46 | -37.48757 | -63.28301 | 37996 ft | 495 kts | 238° |
| 2026-04-29 03:47 | -37.51233 | -63.33036 | 37996 ft | 495 kts | 238° |
| 2026-04-29 03:47 | -37.54001 | -63.38341 | 37996 ft | 495 kts | 238° |
| 2026-04-29 03:48 | -37.57787 | -63.45611 | 37996 ft | 495 kts | 238° |
| 2026-04-29 03:48 | -37.61563 | -63.52878 | 37996 ft | 495 kts | 238° |
| 2026-04-29 03:49 | -37.65336 | -63.60158 | 37996 ft | 495 kts | 238° |
| 2026-04-29 03:49 | -37.69113 | -63.67462 | 37996 ft | 495 kts | 238° |
| 2026-04-29 03:50 | -37.72861 | -63.74728 | 37996 ft | 495 kts | 238° |
| 2026-04-29 03:50 | -37.76612 | -63.82015 | 37996 ft | 495 kts | 238° |
| 2026-04-29 03:51 | -37.80367 | -63.89327 | 37996 ft | 495 kts | 238° |
| 2026-04-29 03:51 | -37.84125 | -63.96661 | 37996 ft | 495 kts | 238° |
| 2026-04-29 03:52 | -37.87873 | -64.03994 | 37996 ft | 495 kts | 238° |
| 2026-04-29 03:52 | -37.91593 | -64.11287 | 37996 ft | 495 kts | 238° |
| 2026-04-29 03:53 | -37.95343 | -64.18658 | 37996 ft | 495 kts | 239° |
| 2026-04-29 03:53 | -37.99058 | -64.25977 | 37996 ft | 495 kts | 239° |
| 2026-04-29 03:54 | -38.02801 | -64.33369 | 37996 ft | 495 kts | 239° |
| 2026-04-29 03:54 | -38.06518 | -64.40731 | 37996 ft | 495 kts | 239° |
| 2026-04-29 03:55 | -38.10220 | -64.48081 | 37996 ft | 495 kts | 239° |
| 2026-04-29 03:55 | -38.13930 | -64.55455 | 37996 ft | 495 kts | 239° |
| 2026-04-29 03:56 | -38.17637 | -64.62840 | 37996 ft | 495 kts | 239° |
| 2026-04-29 03:56 | -38.20724 | -64.69006 | 37996 ft | 495 kts | 239° |
| 2026-04-29 03:57 | -38.24423 | -64.76410 | 37996 ft | 495 kts | 239° |
| 2026-04-29 03:57 | -38.28094 | -64.83778 | 37996 ft | 495 kts | 239° |
| 2026-04-29 03:58 | -38.31795 | -64.91224 | 37996 ft | 495 kts | 239° |
| 2026-04-29 03:58 | -38.35471 | -64.98640 | 37996 ft | 495 kts | 239° |
| 2026-04-29 03:59 | -38.39132 | -65.06044 | 37996 ft | 495 kts | 239° |
| 2026-04-29 03:59 | -38.42798 | -65.13475 | 37996 ft | 495 kts | 239° |
| 2026-04-29 04:00 | -38.46461 | -65.20916 | 37996 ft | 495 kts | 239° |
| 2026-04-29 04:00 | -38.50132 | -65.28393 | 37996 ft | 495 kts | 239° |
| 2026-04-29 04:01 | -38.53785 | -65.35850 | 37996 ft | 495 kts | 239° |
| 2026-04-29 04:01 | -38.57424 | -65.43298 | 37996 ft | 495 kts | 239° |
| 2026-04-29 04:02 | -38.61062 | -65.50760 | 37996 ft | 495 kts | 239° |
| 2026-04-29 04:02 | -38.64691 | -65.58221 | 37996 ft | 495 kts | 239° |
| 2026-04-29 04:03 | -38.68332 | -65.65724 | 37996 ft | 495 kts | 239° |
| 2026-04-29 04:03 | -38.71967 | -65.73233 | 37996 ft | 495 kts | 239° |
| 2026-04-29 04:04 | -38.75590 | -65.80735 | 37996 ft | 495 kts | 239° |
| 2026-04-29 04:04 | -38.79192 | -65.88213 | 37996 ft | 495 kts | 240° |
| 2026-04-29 04:05 | -38.82802 | -65.95727 | 37996 ft | 495 kts | 240° |
| 2026-04-29 04:05 | -38.86426 | -66.03289 | 37996 ft | 495 kts | 240° |
| 2026-04-29 04:06 | -38.90014 | -66.10803 | 37996 ft | 495 kts | 240° |
| 2026-04-29 04:06 | -38.93609 | -66.18340 | 37996 ft | 495 kts | 240° |
| 2026-04-29 04:07 | -38.97195 | -66.25878 | 37996 ft | 495 kts | 240° |
| 2026-04-29 04:07 | -39.00782 | -66.33436 | 37996 ft | 495 kts | 240° |
| 2026-04-29 04:08 | -39.04369 | -66.41018 | 37996 ft | 495 kts | 240° |
| 2026-04-29 04:08 | -39.07936 | -66.48578 | 37996 ft | 495 kts | 240° |
| 2026-04-29 04:09 | -39.11502 | -66.56154 | 37996 ft | 495 kts | 240° |
| 2026-04-29 04:09 | -39.15057 | -66.63728 | 37996 ft | 495 kts | 240° |
| 2026-04-29 04:10 | -39.18613 | -66.71324 | 37996 ft | 495 kts | 240° |
| 2026-04-29 04:10 | -39.22173 | -66.78946 | 37996 ft | 495 kts | 240° |
| 2026-04-29 04:11 | -39.25708 | -66.86534 | 37996 ft | 495 kts | 240° |
| 2026-04-29 04:11 | -39.29249 | -66.94153 | 37996 ft | 495 kts | 240° |
| 2026-04-29 04:12 | -39.32795 | -67.01802 | 37996 ft | 495 kts | 240° |
| 2026-04-29 04:12 | -39.36307 | -67.09396 | 37996 ft | 495 kts | 240° |
| 2026-04-29 04:13 | -39.39845 | -67.17066 | 37996 ft | 495 kts | 240° |
| 2026-04-29 04:13 | -39.43363 | -67.24710 | 37996 ft | 495 kts | 240° |
| 2026-04-29 04:14 | -39.46867 | -67.32343 | 37996 ft | 495 kts | 240° |
| 2026-04-29 04:14 | -39.50391 | -67.40040 | 37996 ft | 495 kts | 240° |
| 2026-04-29 04:15 | -39.53901 | -67.47723 | 37996 ft | 495 kts | 241° |
| 2026-04-29 04:15 | -39.57401 | -67.55403 | 37996 ft | 495 kts | 241° |
| 2026-04-29 04:16 | -39.60885 | -67.63070 | 37996 ft | 495 kts | 241° |
| 2026-04-29 04:16 | -39.64375 | -67.70769 | 37996 ft | 495 kts | 241° |
| 2026-04-29 04:17 | -39.67860 | -67.78474 | 37996 ft | 495 kts | 241° |
| 2026-04-29 04:17 | -39.71337 | -67.86184 | 37996 ft | 495 kts | 241° |
| 2026-04-29 04:18 | -39.74811 | -67.93910 | 37996 ft | 495 kts | 241° |
| 2026-04-29 04:18 | -39.78291 | -68.01673 | 37996 ft | 495 kts | 241° |
| 2026-04-29 04:19 | -39.81861 | -68.09332 | 37996 ft | 495 kts | 239° |
| 2026-04-29 04:19 | -39.85590 | -68.16868 | 37996 ft | 495 kts | 238° |
| 2026-04-29 04:20 | -39.89378 | -68.24353 | 37996 ft | 495 kts | 238° |
| 2026-04-29 04:20 | -39.93183 | -68.31827 | 37996 ft | 495 kts | 238° |
| 2026-04-29 04:21 | -39.96991 | -68.39315 | 37996 ft | 495 kts | 238° |
| 2026-04-29 04:21 | -40.00774 | -68.46779 | 37996 ft | 495 kts | 238° |
| 2026-04-29 04:22 | -40.04582 | -68.54321 | 37996 ft | 495 kts | 238° |
| 2026-04-29 04:22 | -40.08354 | -68.61821 | 37996 ft | 495 kts | 238° |
| 2026-04-29 04:23 | -40.12125 | -68.69344 | 37996 ft | 495 kts | 238° |
| 2026-04-29 04:23 | -40.15911 | -68.76923 | 37996 ft | 495 kts | 238° |
| 2026-04-29 04:24 | -40.19664 | -68.84456 | 37996 ft | 495 kts | 238° |
| 2026-04-29 04:24 | -40.23415 | -68.92010 | 37996 ft | 495 kts | 238° |
| 2026-04-29 04:25 | -40.27162 | -68.99575 | 37996 ft | 495 kts | 238° |
| 2026-04-29 04:25 | -40.30907 | -69.07160 | 37996 ft | 495 kts | 238° |
| 2026-04-29 04:26 | -40.34645 | -69.14747 | 37996 ft | 495 kts | 238° |
| 2026-04-29 04:26 | -40.38369 | -69.22307 | 37996 ft | 495 kts | 238° |
| 2026-04-29 04:27 | -40.42116 | -69.29925 | 37996 ft | 495 kts | 238° |
| 2026-04-29 04:27 | -40.45832 | -69.37498 | 37996 ft | 495 kts | 239° |
| 2026-04-29 04:28 | -40.49557 | -69.45110 | 37996 ft | 495 kts | 239° |
| 2026-04-29 04:28 | -40.53294 | -69.52771 | 37996 ft | 495 kts | 239° |
| 2026-04-29 04:29 | -40.56987 | -69.60359 | 37996 ft | 495 kts | 239° |
| 2026-04-29 04:29 | -40.60692 | -69.67996 | 37996 ft | 495 kts | 239° |
| 2026-04-29 04:30 | -40.64399 | -69.75655 | 37996 ft | 495 kts | 239° |
| 2026-04-29 04:31 | -40.69933 | -69.87125 | 37996 ft | 495 kts | 239° |
| 2026-04-29 04:31 | -40.73618 | -69.94790 | 37996 ft | 495 kts | 239° |
| 2026-04-29 04:32 | -40.77309 | -70.02487 | 37996 ft | 495 kts | 239° |
| 2026-04-29 04:32 | -40.80976 | -70.10151 | 37996 ft | 495 kts | 239° |
| 2026-04-29 04:33 | -40.84038 | -70.16567 | 37996 ft | 495 kts | 239° |
| 2026-04-29 04:33 | -40.87709 | -70.24280 | 37996 ft | 495 kts | 239° |
| 2026-04-29 04:34 | -40.91377 | -70.32007 | 37996 ft | 495 kts | 239° |
| 2026-04-29 04:34 | -40.95015 | -70.39697 | 37996 ft | 495 kts | 239° |
| 2026-04-29 04:35 | -40.98099 | -70.47805 | 37997 ft | 493 kts | 249° |
| 2026-04-29 04:35 | -40.99734 | -70.53624 | 37997 ft | 493 kts | 252° |
| 2026-04-29 04:36 | -41.01791 | -70.62266 | 37996 ft | 492 kts | 254° |
| 2026-04-29 04:36 | -41.03690 | -70.71018 | 37996 ft | 492 kts | 255° |
| 2026-04-29 04:37 | -41.05534 | -70.79721 | 37996 ft | 492 kts | 255° |
| 2026-04-29 04:37 | -41.07388 | -70.88440 | 37996 ft | 492 kts | 255° |
| 2026-04-29 04:38 | -41.09271 | -70.97187 | 37996 ft | 492 kts | 255° |
| 2026-04-29 04:38 | -41.11174 | -71.05926 | 37996 ft | 492 kts | 255° |
| 2026-04-29 04:39 | -41.13075 | -71.14616 | 37996 ft | 492 kts | 255° |
| 2026-04-29 04:39 | -41.14764 | -71.23469 | 37996 ft | 492 kts | 257° |
| 2026-04-29 04:40 | -41.16234 | -71.32340 | 37996 ft | 492 kts | 258° |
| 2026-04-29 04:40 | -41.17614 | -71.41240 | 37996 ft | 492 kts | 259° |
| 2026-04-29 04:41 | -41.18950 | -71.50104 | 37996 ft | 492 kts | 259° |
| 2026-04-29 04:41 | -41.20284 | -71.59021 | 37996 ft | 492 kts | 259° |
| 2026-04-29 04:42 | -41.21623 | -71.67976 | 37996 ft | 492 kts | 259° |
| 2026-04-29 04:42 | -41.22951 | -71.76856 | 37996 ft | 492 kts | 259° |
| 2026-04-29 04:43 | -41.24312 | -71.85806 | 37996 ft | 492 kts | 259° |
| 2026-04-29 04:43 | -41.25713 | -71.94683 | 37996 ft | 492 kts | 258° |
| 2026-04-29 04:44 | -41.27134 | -72.03588 | 37996 ft | 492 kts | 258° |
| 2026-04-29 04:44 | -41.28545 | -72.12427 | 37996 ft | 492 kts | 258° |
| 2026-04-29 04:45 | -41.29961 | -72.21342 | 37996 ft | 492 kts | 258° |
| 2026-04-29 04:45 | -41.31371 | -72.30291 | 37996 ft | 492 kts | 259° |
| 2026-04-29 04:46 | -41.32765 | -72.39204 | 37996 ft | 492 kts | 259° |
| 2026-04-29 04:46 | -41.34146 | -72.48110 | 37996 ft | 492 kts | 259° |
| 2026-04-29 04:47 | -41.35497 | -72.57029 | 37996 ft | 492 kts | 259° |
| 2026-04-29 04:47 | -41.36808 | -72.65959 | 37996 ft | 492 kts | 259° |
| 2026-04-29 04:48 | -41.38098 | -72.74907 | 37996 ft | 492 kts | 259° |
| 2026-04-29 04:48 | -41.39375 | -72.83863 | 37996 ft | 492 kts | 260° |
| 2026-04-29 04:49 | -41.40642 | -72.92825 | 37996 ft | 492 kts | 260° |
| 2026-04-29 04:49 | -41.41901 | -73.01785 | 37996 ft | 492 kts | 260° |
| 2026-04-29 04:50 | -41.43604 | -73.10559 | 37996 ft | 493 kts | 251° |
| 2026-04-29 04:50 | -41.46222 | -73.19027 | 37997 ft | 493 kts | 246° |
| 2026-04-29 04:51 | -41.49191 | -73.27345 | 37996 ft | 494 kts | 245° |
| 2026-04-29 04:51 | -41.52229 | -73.35496 | 37996 ft | 494 kts | 244° |
| 2026-04-29 04:52 | -41.55312 | -73.43702 | 37996 ft | 494 kts | 244° |
| 2026-04-29 04:52 | -41.58377 | -73.51894 | 37996 ft | 494 kts | 245° |
| 2026-04-29 04:53 | -41.61439 | -73.60140 | 37996 ft | 494 kts | 245° |
| 2026-04-29 04:53 | -41.64478 | -73.68390 | 37996 ft | 494 kts | 245° |
| 2026-04-29 04:54 | -41.67487 | -73.76619 | 37996 ft | 494 kts | 245° |
| 2026-04-29 04:54 | -41.70502 | -73.84912 | 37996 ft | 494 kts | 245° |
| 2026-04-29 04:55 | -41.73494 | -73.93190 | 37996 ft | 494 kts | 245° |
| 2026-04-29 04:55 | -41.76465 | -74.01447 | 37996 ft | 494 kts | 245° |
| 2026-04-29 04:56 | -41.79452 | -74.09787 | 37996 ft | 494 kts | 245° |
| 2026-04-29 04:56 | -41.82419 | -74.18101 | 37996 ft | 494 kts | 245° |
| 2026-04-29 04:57 | -41.85359 | -74.26372 | 37996 ft | 494 kts | 246° |
| 2026-04-29 04:57 | -41.88322 | -74.34735 | 37996 ft | 494 kts | 246° |
| 2026-04-29 04:58 | -41.91253 | -74.43035 | 37996 ft | 494 kts | 246° |
| 2026-04-29 04:58 | -41.94191 | -74.51383 | 37996 ft | 494 kts | 246° |
| 2026-04-29 04:59 | -41.97119 | -74.59727 | 37996 ft | 494 kts | 246° |
| 2026-04-29 04:59 | -42.00040 | -74.68079 | 37996 ft | 494 kts | 246° |
| 2026-04-29 05:00 | -42.02951 | -74.76428 | 37996 ft | 494 kts | 246° |
| 2026-04-29 05:00 | -42.05857 | -74.84787 | 37996 ft | 494 kts | 246° |
| 2026-04-29 05:01 | -42.08760 | -74.93163 | 37996 ft | 494 kts | 246° |
| 2026-04-29 05:01 | -42.11668 | -75.01579 | 37996 ft | 494 kts | 246° |
| 2026-04-29 05:02 | -42.14551 | -75.09951 | 37996 ft | 494 kts | 246° |
| 2026-04-29 05:02 | -42.17431 | -75.18337 | 37996 ft | 493 kts | 246° |
| 2026-04-29 05:03 | -42.20317 | -75.26767 | 37996 ft | 493 kts | 246° |
| 2026-04-29 05:03 | -42.23183 | -75.35162 | 37996 ft | 493 kts | 246° |
| 2026-04-29 05:04 | -42.26065 | -75.43631 | 37996 ft | 493 kts | 246° |
| 2026-04-29 05:04 | -42.28911 | -75.52022 | 37996 ft | 493 kts | 246° |
| 2026-04-29 05:05 | -42.31756 | -75.60436 | 37996 ft | 493 kts | 246° |
| 2026-04-29 05:05 | -42.34147 | -75.67524 | 37996 ft | 493 kts | 246° |
| 2026-04-29 05:06 | -42.36981 | -75.75951 | 37996 ft | 493 kts | 246° |
| 2026-04-29 05:06 | -42.39817 | -75.84412 | 37996 ft | 493 kts | 247° |
| 2026-04-29 05:07 | -42.42646 | -75.92878 | 37996 ft | 493 kts | 247° |
| 2026-04-29 05:07 | -42.45476 | -76.01373 | 37996 ft | 493 kts | 247° |
| 2026-04-29 05:08 | -42.48292 | -76.09849 | 37996 ft | 493 kts | 247° |
| 2026-04-29 05:08 | -42.51097 | -76.18323 | 37996 ft | 493 kts | 247° |
| 2026-04-29 05:09 | -42.53889 | -76.26781 | 37996 ft | 493 kts | 247° |
| 2026-04-29 05:09 | -42.56693 | -76.35302 | 37996 ft | 493 kts | 247° |
| 2026-04-29 05:10 | -42.59484 | -76.43814 | 37996 ft | 493 kts | 247° |
| 2026-04-29 05:10 | -42.62275 | -76.52350 | 37996 ft | 493 kts | 247° |
| 2026-04-29 05:11 | -42.65051 | -76.60866 | 37996 ft | 493 kts | 247° |
| 2026-04-29 05:11 | -42.67820 | -76.69389 | 37996 ft | 493 kts | 247° |
| 2026-04-29 05:12 | -42.70584 | -76.77923 | 37996 ft | 493 kts | 247° |
| 2026-04-29 05:12 | -42.73333 | -76.86438 | 37996 ft | 493 kts | 247° |
| 2026-04-29 05:13 | -42.76095 | -76.95022 | 37996 ft | 493 kts | 248° |
| 2026-04-29 05:13 | -42.78839 | -77.03575 | 37996 ft | 493 kts | 248° |
| 2026-04-29 05:14 | -42.81582 | -77.12155 | 37996 ft | 493 kts | 248° |
| 2026-04-29 05:14 | -42.84309 | -77.20712 | 37996 ft | 493 kts | 248° |
| 2026-04-29 05:15 | -42.87036 | -77.29295 | 37996 ft | 493 kts | 248° |
| 2026-04-29 05:15 | -42.89760 | -77.37897 | 37996 ft | 493 kts | 248° |
| 2026-04-29 05:16 | -42.92474 | -77.46495 | 37996 ft | 493 kts | 248° |
| 2026-04-29 05:16 | -42.95169 | -77.55062 | 37996 ft | 493 kts | 248° |
| 2026-04-29 05:17 | -42.97876 | -77.63695 | 37996 ft | 493 kts | 248° |
| 2026-04-29 05:17 | -43.00578 | -77.72339 | 37996 ft | 493 kts | 248° |
| 2026-04-29 05:18 | -43.03249 | -77.80914 | 37996 ft | 493 kts | 248° |
| 2026-04-29 05:18 | -43.05937 | -77.89572 | 37996 ft | 493 kts | 248° |
| 2026-04-29 05:19 | -43.08618 | -77.98233 | 37996 ft | 493 kts | 248° |
| 2026-04-29 05:19 | -43.11279 | -78.06861 | 37996 ft | 493 kts | 248° |
| 2026-04-29 05:20 | -43.13948 | -78.15541 | 37996 ft | 493 kts | 248° |
| 2026-04-29 05:20 | -43.16586 | -78.24151 | 37996 ft | 493 kts | 248° |
| 2026-04-29 05:21 | -43.19247 | -78.32863 | 37996 ft | 493 kts | 248° |
| 2026-04-29 05:21 | -43.21886 | -78.41532 | 37996 ft | 493 kts | 248° |
| 2026-04-29 05:22 | -43.24520 | -78.50216 | 37996 ft | 493 kts | 248° |
| 2026-04-29 05:22 | -43.27149 | -78.58911 | 37996 ft | 493 kts | 249° |
| 2026-04-29 05:23 | -43.29761 | -78.67581 | 37996 ft | 493 kts | 249° |
| 2026-04-29 05:23 | -43.32374 | -78.76282 | 37996 ft | 493 kts | 249° |
| 2026-04-29 05:24 | -43.34984 | -78.85000 | 37996 ft | 493 kts | 249° |
| 2026-04-29 05:24 | -43.37592 | -78.93744 | 37996 ft | 493 kts | 249° |
| 2026-04-29 05:25 | -43.40175 | -79.02435 | 37996 ft | 493 kts | 249° |
| 2026-04-29 05:25 | -43.42766 | -79.11178 | 37996 ft | 493 kts | 249° |
| 2026-04-29 05:26 | -43.45356 | -79.19953 | 37996 ft | 493 kts | 249° |
| 2026-04-29 05:26 | -43.47930 | -79.28701 | 37996 ft | 493 kts | 249° |
| 2026-04-29 05:27 | -43.50490 | -79.37431 | 37996 ft | 493 kts | 249° |
| 2026-04-29 05:27 | -43.54328 | -79.50577 | 37996 ft | 493 kts | 249° |
| 2026-04-29 05:28 | -43.56881 | -79.59360 | 37996 ft | 493 kts | 249° |
| 2026-04-29 05:28 | -43.59417 | -79.68114 | 37996 ft | 493 kts | 249° |
| 2026-04-29 05:29 | -43.61956 | -79.76910 | 37996 ft | 493 kts | 249° |
| 2026-04-29 05:29 | -43.64494 | -79.85734 | 37996 ft | 493 kts | 249° |
| 2026-04-29 05:30 | -43.67020 | -79.94546 | 37996 ft | 493 kts | 249° |
| 2026-04-29 05:30 | -43.69536 | -80.03355 | 37996 ft | 493 kts | 249° |
| 2026-04-29 05:31 | -43.72040 | -80.12153 | 37996 ft | 493 kts | 249° |
| 2026-04-29 05:31 | -43.74542 | -80.20975 | 37996 ft | 493 kts | 250° |
| 2026-04-29 05:32 | -43.77033 | -80.29790 | 37996 ft | 493 kts | 250° |
| 2026-04-29 05:32 | -43.79524 | -80.38634 | 37996 ft | 493 kts | 250° |
| 2026-04-29 05:33 | -43.82014 | -80.47508 | 37996 ft | 493 kts | 250° |
| 2026-04-29 05:33 | -43.84493 | -80.56372 | 37996 ft | 493 kts | 250° |
| 2026-04-29 05:34 | -43.86948 | -80.65184 | 37996 ft | 493 kts | 250° |
| 2026-04-29 05:34 | -43.89419 | -80.74088 | 37996 ft | 493 kts | 250° |
| 2026-04-29 05:35 | -43.91876 | -80.82970 | 37996 ft | 493 kts | 250° |
| 2026-04-29 05:35 | -43.94323 | -80.91850 | 37996 ft | 493 kts | 250° |
| 2026-04-29 05:36 | -43.96758 | -81.00717 | 37996 ft | 493 kts | 250° |
| 2026-04-29 05:36 | -43.99201 | -81.09646 | 37996 ft | 493 kts | 250° |
| 2026-04-29 05:37 | -44.01626 | -81.18544 | 37996 ft | 493 kts | 250° |
| 2026-04-29 05:37 | -44.04039 | -81.27427 | 37996 ft | 493 kts | 250° |
| 2026-04-29 05:38 | -44.06453 | -81.36349 | 37996 ft | 493 kts | 250° |
| 2026-04-29 05:38 | -44.08861 | -81.45282 | 37996 ft | 493 kts | 250° |
| 2026-04-29 05:39 | -44.10855 | -81.52703 | 37996 ft | 493 kts | 250° |
| 2026-04-29 05:39 | -44.13253 | -81.61658 | 37996 ft | 493 kts | 250° |
| 2026-04-29 05:40 | -44.15647 | -81.70634 | 37996 ft | 493 kts | 250° |
| 2026-04-29 05:40 | -44.18028 | -81.79590 | 37996 ft | 493 kts | 251° |
| 2026-04-29 05:41 | -44.20387 | -81.88503 | 37996 ft | 493 kts | 251° |
| 2026-04-29 05:41 | -44.22765 | -81.97515 | 37996 ft | 493 kts | 251° |
| 2026-04-29 05:42 | -44.25123 | -82.06490 | 37996 ft | 493 kts | 251° |
| 2026-04-29 05:42 | -44.27469 | -82.15450 | 37996 ft | 493 kts | 251° |
| 2026-04-29 05:43 | -44.29815 | -82.24446 | 37996 ft | 493 kts | 251° |
| 2026-04-29 05:43 | -44.32153 | -82.33446 | 37996 ft | 493 kts | 251° |
| 2026-04-29 05:44 | -44.34478 | -82.42427 | 37996 ft | 493 kts | 251° |
| 2026-04-29 05:44 | -44.36807 | -82.51463 | 37996 ft | 493 kts | 251° |
| 2026-04-29 05:45 | -44.39111 | -82.60432 | 37996 ft | 493 kts | 251° |
| 2026-04-29 05:45 | -44.41432 | -82.69504 | 37996 ft | 493 kts | 251° |
| 2026-04-29 05:46 | -44.43722 | -82.78489 | 37996 ft | 493 kts | 251° |
| 2026-04-29 05:46 | -44.46015 | -82.87523 | 37996 ft | 493 kts | 251° |
| 2026-04-29 05:47 | -44.48306 | -82.96579 | 37996 ft | 493 kts | 251° |
| 2026-04-29 05:47 | -44.50590 | -83.05650 | 37996 ft | 493 kts | 251° |
| 2026-04-29 05:48 | -44.52863 | -83.14706 | 37996 ft | 493 kts | 251° |
| 2026-04-29 05:48 | -44.55129 | -83.23773 | 37996 ft | 493 kts | 251° |
| 2026-04-29 05:49 | -44.57384 | -83.32831 | 37996 ft | 493 kts | 251° |
| 2026-04-29 05:49 | -44.59644 | -83.41946 | 37996 ft | 493 kts | 252° |
| 2026-04-29 05:50 | -44.61882 | -83.51007 | 37996 ft | 493 kts | 252° |
| 2026-04-29 05:50 | -44.64119 | -83.60104 | 37996 ft | 493 kts | 252° |
| 2026-04-29 05:51 | -44.66345 | -83.69187 | 37996 ft | 493 kts | 252° |
| 2026-04-29 05:51 | -44.68559 | -83.78262 | 37996 ft | 493 kts | 252° |
| 2026-04-29 05:52 | -44.70787 | -83.87429 | 37996 ft | 493 kts | 252° |
| 2026-04-29 05:52 | -44.72983 | -83.96502 | 37996 ft | 493 kts | 252° |
| 2026-04-29 05:53 | -44.75186 | -84.05641 | 37996 ft | 493 kts | 252° |
| 2026-04-29 05:53 | -44.77389 | -84.14815 | 37996 ft | 492 kts | 252° |
| 2026-04-29 05:54 | -44.79578 | -84.23969 | 37996 ft | 492 kts | 252° |
| 2026-04-29 05:54 | -44.81745 | -84.33070 | 37996 ft | 492 kts | 252° |
| 2026-04-29 05:55 | -44.83923 | -84.42252 | 37996 ft | 492 kts | 252° |
| 2026-04-29 05:55 | -44.86088 | -84.51418 | 37996 ft | 492 kts | 252° |
| 2026-04-29 05:56 | -44.88238 | -84.60558 | 37996 ft | 492 kts | 252° |
| 2026-04-29 05:56 | -44.90392 | -84.69758 | 37996 ft | 492 kts | 252° |
| 2026-04-29 05:57 | -44.92533 | -84.78935 | 37996 ft | 492 kts | 252° |
| 2026-04-29 05:57 | -44.94666 | -84.88115 | 37996 ft | 492 kts | 252° |
| 2026-04-29 05:58 | -44.96788 | -84.97289 | 37996 ft | 492 kts | 253° |
| 2026-04-29 05:58 | -44.98917 | -85.06534 | 37996 ft | 492 kts | 253° |
| 2026-04-29 05:59 | -45.01025 | -85.15724 | 37996 ft | 492 kts | 253° |
| 2026-04-29 05:59 | -45.03128 | -85.24933 | 37996 ft | 492 kts | 253° |
| 2026-04-29 06:00 | -45.05231 | -85.34181 | 37996 ft | 492 kts | 253° |
| 2026-04-29 06:00 | -45.07309 | -85.43359 | 37996 ft | 492 kts | 253° |
| 2026-04-29 06:01 | -45.09394 | -85.52606 | 37996 ft | 492 kts | 253° |
| 2026-04-29 06:01 | -45.11473 | -85.61863 | 37996 ft | 492 kts | 253° |
| 2026-04-29 06:02 | -45.13530 | -85.71068 | 37996 ft | 492 kts | 253° |
| 2026-04-29 06:02 | -45.15593 | -85.80334 | 37996 ft | 492 kts | 253° |
| 2026-04-29 06:03 | -45.17651 | -85.89624 | 37996 ft | 492 kts | 253° |
| 2026-04-29 06:03 | -45.19689 | -85.98859 | 37996 ft | 492 kts | 253° |
| 2026-04-29 06:04 | -45.21729 | -86.08147 | 37996 ft | 492 kts | 253° |
| 2026-04-29 06:04 | -45.23761 | -86.17437 | 37996 ft | 492 kts | 253° |
| 2026-04-29 06:05 | -45.25785 | -86.26737 | 37996 ft | 492 kts | 253° |
| 2026-04-29 06:05 | -45.27795 | -86.36009 | 37996 ft | 492 kts | 253° |
| 2026-04-29 06:06 | -45.29803 | -86.45311 | 37996 ft | 492 kts | 253° |
| 2026-04-29 06:06 | -45.31808 | -86.54643 | 37996 ft | 492 kts | 254° |
| 2026-04-29 06:07 | -45.33785 | -86.63891 | 37996 ft | 492 kts | 254° |
| 2026-04-29 06:07 | -45.35778 | -86.73250 | 37996 ft | 492 kts | 254° |
| 2026-04-29 06:08 | -45.37752 | -86.82564 | 37996 ft | 492 kts | 254° |
| 2026-04-29 06:08 | -45.39724 | -86.91911 | 37996 ft | 492 kts | 254° |
| 2026-04-29 06:09 | -45.41677 | -87.01208 | 37996 ft | 492 kts | 254° |
| 2026-04-29 06:09 | -45.43632 | -87.10559 | 37996 ft | 492 kts | 254° |
| 2026-04-29 06:10 | -45.45578 | -87.19910 | 37996 ft | 492 kts | 254° |
| 2026-04-29 06:10 | -45.47512 | -87.29250 | 37996 ft | 492 kts | 254° |
| 2026-04-29 06:11 | -45.49451 | -87.38652 | 37996 ft | 492 kts | 254° |
| 2026-04-29 06:11 | -45.51377 | -87.48037 | 37996 ft | 492 kts | 254° |
| 2026-04-29 06:12 | -45.53290 | -87.57400 | 37996 ft | 492 kts | 255° |
| 2026-04-29 06:12 | -45.55186 | -87.66727 | 37996 ft | 492 kts | 255° |
| 2026-04-29 06:13 | -45.57095 | -87.76163 | 37996 ft | 492 kts | 255° |
| 2026-04-29 06:13 | -45.58669 | -87.83976 | 37996 ft | 492 kts | 255° |
| 2026-04-29 06:14 | -45.60553 | -87.93368 | 37996 ft | 492 kts | 255° |
| 2026-04-29 06:14 | -45.62437 | -88.02803 | 37996 ft | 492 kts | 255° |
| 2026-04-29 06:15 | -45.64307 | -88.12216 | 37996 ft | 492 kts | 255° |
| 2026-04-29 06:15 | -45.66163 | -88.21603 | 37996 ft | 492 kts | 255° |
| 2026-04-29 06:16 | -45.68027 | -88.31076 | 37996 ft | 492 kts | 255° |
| 2026-04-29 06:16 | -45.69862 | -88.40446 | 37996 ft | 492 kts | 255° |
| 2026-04-29 06:17 | -45.71708 | -88.49919 | 37996 ft | 492 kts | 255° |
| 2026-04-29 06:17 | -45.73543 | -88.59386 | 37996 ft | 492 kts | 255° |
| 2026-04-29 06:18 | -45.75357 | -88.68785 | 37996 ft | 492 kts | 255° |
| 2026-04-29 06:18 | -45.77173 | -88.78245 | 37996 ft | 492 kts | 255° |
| 2026-04-29 06:19 | -45.78982 | -88.87714 | 37996 ft | 492 kts | 255° |
| 2026-04-29 06:19 | -45.80778 | -88.97161 | 37996 ft | 492 kts | 255° |
| 2026-04-29 06:20 | -45.82575 | -89.06663 | 37996 ft | 492 kts | 256° |
| 2026-04-29 06:20 | -45.84360 | -89.16149 | 37996 ft | 492 kts | 256° |
| 2026-04-29 06:21 | -45.86135 | -89.25630 | 37996 ft | 492 kts | 256° |
| 2026-04-29 06:21 | -45.87893 | -89.35068 | 37996 ft | 492 kts | 256° |
| 2026-04-29 06:22 | -45.89656 | -89.44585 | 37996 ft | 492 kts | 256° |
| 2026-04-29 06:22 | -45.91416 | -89.54132 | 37996 ft | 492 kts | 256° |
| 2026-04-29 06:23 | -45.93154 | -89.63611 | 37996 ft | 492 kts | 256° |
| 2026-04-29 06:23 | -45.94883 | -89.73096 | 37996 ft | 492 kts | 256° |
| 2026-04-29 06:24 | -45.96615 | -89.82650 | 37996 ft | 492 kts | 256° |
| 2026-04-29 06:24 | -45.98334 | -89.92192 | 37996 ft | 492 kts | 256° |
| 2026-04-29 06:25 | -46.00621 | -90.01463 | 37997 ft | 493 kts | 245° |
| 2026-04-29 06:25 | -46.04012 | -90.10036 | 37997 ft | 495 kts | 239° |
| 2026-04-29 06:26 | -46.07821 | -90.18305 | 37996 ft | 495 kts | 237° |
| 2026-04-29 06:26 | -46.11750 | -90.26443 | 37996 ft | 495 kts | 236° |
| 2026-04-29 06:27 | -46.15716 | -90.34589 | 37996 ft | 496 kts | 236° |
| 2026-04-29 06:27 | -46.19657 | -90.42723 | 37996 ft | 496 kts | 237° |
| 2026-04-29 06:28 | -46.23602 | -90.50933 | 37996 ft | 495 kts | 237° |
| 2026-04-29 06:28 | -46.27509 | -90.59136 | 37996 ft | 495 kts | 237° |
| 2026-04-29 06:29 | -46.31388 | -90.67344 | 37996 ft | 495 kts | 237° |
| 2026-04-29 06:29 | -46.35264 | -90.75601 | 37996 ft | 495 kts | 237° |
| 2026-04-29 06:30 | -46.41062 | -90.88041 | 37996 ft | 495 kts | 237° |
| 2026-04-29 06:31 | -46.44884 | -90.96289 | 37996 ft | 495 kts | 238° |
| 2026-04-29 06:31 | -46.48713 | -91.04590 | 37996 ft | 495 kts | 238° |
| 2026-04-29 06:32 | -46.52557 | -91.12953 | 37996 ft | 495 kts | 238° |
| 2026-04-29 06:32 | -46.56362 | -91.21264 | 37996 ft | 495 kts | 238° |
| 2026-04-29 06:33 | -46.60182 | -91.29637 | 37996 ft | 495 kts | 238° |
| 2026-04-29 06:33 | -46.63963 | -91.37952 | 37996 ft | 495 kts | 238° |
| 2026-04-29 06:34 | -46.67776 | -91.46363 | 37996 ft | 495 kts | 238° |
| 2026-04-29 06:34 | -46.71554 | -91.54726 | 37996 ft | 495 kts | 238° |
| 2026-04-29 06:35 | -46.75329 | -91.63105 | 37996 ft | 495 kts | 238° |
| 2026-04-29 06:35 | -46.79108 | -91.71522 | 37996 ft | 495 kts | 238° |
| 2026-04-29 06:36 | -46.82881 | -91.79951 | 37996 ft | 495 kts | 238° |
| 2026-04-29 06:36 | -46.86633 | -91.88358 | 37996 ft | 495 kts | 238° |
| 2026-04-29 06:37 | -46.90403 | -91.96831 | 37996 ft | 495 kts | 238° |
| 2026-04-29 06:37 | -46.94143 | -92.05263 | 37996 ft | 495 kts | 238° |
| 2026-04-29 06:38 | -46.97882 | -92.13719 | 37996 ft | 495 kts | 238° |
| 2026-04-29 06:38 | -47.01643 | -92.22252 | 37996 ft | 495 kts | 238° |
| 2026-04-29 06:39 | -47.05354 | -92.30698 | 37996 ft | 495 kts | 239° |
| 2026-04-29 06:39 | -47.09074 | -92.39188 | 37996 ft | 495 kts | 239° |
| 2026-04-29 06:40 | -47.12799 | -92.47718 | 37996 ft | 495 kts | 239° |
| 2026-04-29 06:40 | -47.16501 | -92.56220 | 37996 ft | 495 kts | 239° |
| 2026-04-29 06:41 | -47.20207 | -92.64760 | 37996 ft | 495 kts | 239° |
| 2026-04-29 06:41 | -47.23903 | -92.73301 | 37996 ft | 495 kts | 239° |
| 2026-04-29 06:42 | -47.27604 | -92.81882 | 37996 ft | 495 kts | 239° |
| 2026-04-29 06:42 | -47.31288 | -92.90450 | 37996 ft | 495 kts | 239° |
| 2026-04-29 06:43 | -47.34953 | -92.98998 | 37996 ft | 495 kts | 239° |
| 2026-04-29 06:43 | -47.36597 | -93.02842 | 37996 ft | 495 kts | 239° |
| 2026-04-29 06:44 | -47.40183 | -93.11248 | 37996 ft | 495 kts | 239° |
| 2026-04-29 06:45 | -47.43854 | -93.19874 | 37998 ft | 495 kts | 239° |
| 2026-04-29 06:45 | -47.47500 | -93.28470 | 38004 ft | 495 kts | 239° |
| 2026-04-29 06:46 | -47.51159 | -93.37119 | 38014 ft | 495 kts | 239° |
| 2026-04-29 06:46 | -47.54789 | -93.45722 | 38025 ft | 495 kts | 239° |
| 2026-04-29 06:47 | -47.57833 | -93.52953 | 38035 ft | 495 kts | 239° |
| 2026-04-29 06:47 | -47.61471 | -93.61617 | 38044 ft | 495 kts | 239° |
| 2026-04-29 06:48 | -47.65113 | -93.70310 | 38050 ft | 495 kts | 239° |
| 2026-04-29 06:48 | -47.68741 | -93.78989 | 38053 ft | 495 kts | 239° |
| 2026-04-29 06:49 | -47.72348 | -93.87639 | 38054 ft | 495 kts | 239° |
| 2026-04-29 06:49 | -47.75982 | -93.96372 | 38055 ft | 495 kts | 239° |
| 2026-04-29 06:50 | -47.79596 | -94.05075 | 38058 ft | 495 kts | 240° |
| 2026-04-29 06:50 | -47.83216 | -94.13807 | 38063 ft | 495 kts | 240° |
| 2026-04-29 06:51 | -47.86817 | -94.22514 | 38071 ft | 495 kts | 240° |
| 2026-04-29 06:51 | -47.90422 | -94.31246 | 38080 ft | 495 kts | 240° |
| 2026-04-29 06:52 | -47.94024 | -94.39987 | 38089 ft | 495 kts | 240° |
| 2026-04-29 06:52 | -47.97617 | -94.48720 | 38096 ft | 495 kts | 240° |
| 2026-04-29 06:53 | -48.01215 | -94.57481 | 38101 ft | 495 kts | 240° |
| 2026-04-29 06:53 | -48.04825 | -94.66286 | 38103 ft | 495 kts | 240° |
| 2026-04-29 06:54 | -48.08401 | -94.75021 | 38104 ft | 495 kts | 240° |
| 2026-04-29 06:54 | -48.11993 | -94.83808 | 38106 ft | 495 kts | 240° |
| 2026-04-29 06:55 | -48.15577 | -94.92589 | 38110 ft | 495 kts | 240° |
| 2026-04-29 06:55 | -48.19161 | -95.01384 | 38117 ft | 495 kts | 240° |
| 2026-04-29 06:56 | -48.22763 | -95.10236 | 38124 ft | 495 kts | 240° |
| 2026-04-29 06:56 | -48.26332 | -95.19019 | 38133 ft | 495 kts | 240° |
| 2026-04-29 06:57 | -48.29910 | -95.27835 | 38141 ft | 495 kts | 240° |
| 2026-04-29 06:57 | -48.33508 | -95.36714 | 38147 ft | 495 kts | 240° |
| 2026-04-29 06:58 | -48.37090 | -95.45562 | 38151 ft | 495 kts | 240° |
| 2026-04-29 06:58 | -48.40651 | -95.54371 | 38154 ft | 495 kts | 240° |
| 2026-04-29 06:59 | -48.44232 | -95.63240 | 38156 ft | 495 kts | 240° |
| 2026-04-29 06:59 | -48.47799 | -95.72085 | 38159 ft | 495 kts | 240° |
| 2026-04-29 07:00 | -48.51370 | -95.80949 | 38164 ft | 495 kts | 240° |
| 2026-04-29 07:00 | -48.54949 | -95.89845 | 38170 ft | 495 kts | 240° |
| 2026-04-29 07:01 | -48.58512 | -95.98708 | 38177 ft | 495 kts | 240° |
| 2026-04-29 07:01 | -48.62093 | -96.07629 | 38185 ft | 495 kts | 240° |
| 2026-04-29 07:02 | -48.65656 | -96.16511 | 38192 ft | 495 kts | 240° |
| 2026-04-29 07:02 | -48.69225 | -96.25419 | 38197 ft | 495 kts | 240° |
| 2026-04-29 07:03 | -48.72794 | -96.34335 | 38201 ft | 495 kts | 240° |
| 2026-04-29 07:03 | -48.76375 | -96.43291 | 38204 ft | 495 kts | 240° |
| 2026-04-29 07:04 | -48.79926 | -96.52180 | 38208 ft | 495 kts | 240° |
| 2026-04-29 07:04 | -48.83492 | -96.61116 | 38212 ft | 495 kts | 240° |
| 2026-04-29 07:05 | -48.87052 | -96.70046 | 38217 ft | 495 kts | 240° |
| 2026-04-29 07:05 | -48.90633 | -96.79037 | 38223 ft | 495 kts | 240° |
| 2026-04-29 07:06 | -48.94197 | -96.87995 | 38230 ft | 495 kts | 240° |
| 2026-04-29 07:06 | -48.97750 | -96.96935 | 38237 ft | 495 kts | 240° |
| 2026-04-29 07:07 | -49.01316 | -97.05916 | 38242 ft | 495 kts | 240° |
| 2026-04-29 07:07 | -49.04878 | -97.14894 | 38247 ft | 495 kts | 240° |
| 2026-04-29 07:08 | -49.08441 | -97.23883 | 38251 ft | 495 kts | 240° |
| 2026-04-29 07:08 | -49.11982 | -97.32828 | 38255 ft | 495 kts | 240° |
| 2026-04-29 07:09 | -49.15542 | -97.41828 | 38259 ft | 495 kts | 240° |
| 2026-04-29 07:09 | -49.19107 | -97.50848 | 38264 ft | 495 kts | 240° |
| 2026-04-29 07:10 | -49.22655 | -97.59834 | 38269 ft | 495 kts | 240° |
| 2026-04-29 07:10 | -49.26227 | -97.68891 | 38276 ft | 495 kts | 240° |
| 2026-04-29 07:11 | -49.29773 | -97.77891 | 38282 ft | 495 kts | 240° |
| 2026-04-29 07:11 | -49.33336 | -97.86941 | 38288 ft | 495 kts | 240° |
| 2026-04-29 07:12 | -49.36876 | -97.95941 | 38294 ft | 495 kts | 240° |
| 2026-04-29 07:12 | -49.40446 | -98.05027 | 38298 ft | 495 kts | 240° |
| 2026-04-29 07:13 | -49.43996 | -98.14071 | 38301 ft | 495 kts | 240° |
| 2026-04-29 07:13 | -49.47556 | -98.23147 | 38305 ft | 495 kts | 240° |
| 2026-04-29 07:14 | -49.51113 | -98.32224 | 38310 ft | 495 kts | 240° |
| 2026-04-29 07:14 | -49.54655 | -98.41273 | 38315 ft | 495 kts | 240° |
| 2026-04-29 07:15 | -49.58187 | -98.50304 | 38321 ft | 495 kts | 240° |
| 2026-04-29 07:15 | -49.61745 | -98.59410 | 38328 ft | 495 kts | 240° |
| 2026-04-29 07:16 | -49.65294 | -98.68502 | 38334 ft | 495 kts | 240° |
| 2026-04-29 07:16 | -49.68839 | -98.77592 | 38339 ft | 495 kts | 240° |
| 2026-04-29 07:17 | -49.72396 | -98.86721 | 38344 ft | 495 kts | 240° |
| 2026-04-29 07:17 | -49.75946 | -98.95843 | 38348 ft | 495 kts | 240° |
| 2026-04-29 07:18 | -49.79478 | -99.04923 | 38352 ft | 495 kts | 240° |
| 2026-04-29 07:18 | -49.83038 | -99.14081 | 38356 ft | 495 kts | 240° |
| 2026-04-29 07:19 | -49.86591 | -99.23230 | 38361 ft | 495 kts | 240° |
| 2026-04-29 07:19 | -49.90117 | -99.32316 | 38366 ft | 495 kts | 240° |
| 2026-04-29 07:20 | -49.93665 | -99.41464 | 38373 ft | 495 kts | 240° |
| 2026-04-29 07:20 | -49.97215 | -99.50626 | 38379 ft | 495 kts | 240° |
| 2026-04-29 07:21 | -50.00769 | -99.59803 | 38385 ft | 495 kts | 240° |
| 2026-04-29 07:21 | -50.03733 | -99.67462 | 38390 ft | 495 kts | 240° |
| 2026-04-29 07:22 | -50.07271 | -99.76610 | 38394 ft | 495 kts | 240° |
| 2026-04-29 07:22 | -50.10816 | -99.85784 | 38398 ft | 495 kts | 240° |
| 2026-04-29 07:23 | -50.14387 | -99.95030 | 38402 ft | 495 kts | 240° |
| 2026-04-29 07:23 | -50.17935 | -100.04225 | 38406 ft | 495 kts | 240° |
| 2026-04-29 07:24 | -50.21459 | -100.13365 | 38411 ft | 495 kts | 240° |
| 2026-04-29 07:24 | -50.25030 | -100.22634 | 38417 ft | 495 kts | 240° |
| 2026-04-29 07:25 | -50.28556 | -100.31791 | 38423 ft | 495 kts | 240° |
| 2026-04-29 07:25 | -50.32106 | -100.41018 | 38430 ft | 495 kts | 240° |
| 2026-04-29 07:26 | -50.35659 | -100.50261 | 38436 ft | 495 kts | 240° |
| 2026-04-29 07:26 | -50.39204 | -100.59490 | 38440 ft | 495 kts | 240° |
| 2026-04-29 07:27 | -50.42751 | -100.68731 | 38444 ft | 495 kts | 240° |
| 2026-04-29 07:27 | -50.46313 | -100.78017 | 38447 ft | 495 kts | 240° |
| 2026-04-29 07:28 | -50.49847 | -100.87238 | 38452 ft | 495 kts | 240° |
| 2026-04-29 07:28 | -50.53401 | -100.96516 | 38457 ft | 495 kts | 240° |
| 2026-04-29 07:29 | -50.56948 | -101.05786 | 38463 ft | 495 kts | 240° |
| 2026-04-29 07:29 | -50.60490 | -101.15048 | 38469 ft | 495 kts | 240° |
| 2026-04-29 07:30 | -50.64044 | -101.24347 | 38475 ft | 495 kts | 240° |
| 2026-04-29 07:30 | -50.67605 | -101.33674 | 38481 ft | 495 kts | 240° |
| 2026-04-29 07:31 | -50.72936 | -101.47649 | 38488 ft | 495 kts | 240° |
| 2026-04-29 07:31 | -50.76470 | -101.56920 | 38492 ft | 495 kts | 240° |
| 2026-04-29 07:32 | -50.80028 | -101.66263 | 38496 ft | 495 kts | 240° |
| 2026-04-29 07:32 | -50.83570 | -101.75572 | 38500 ft | 495 kts | 240° |
| 2026-04-29 07:33 | -50.87118 | -101.84901 | 38505 ft | 495 kts | 240° |
| 2026-04-29 07:33 | -50.90655 | -101.94212 | 38510 ft | 495 kts | 240° |
| 2026-04-29 07:34 | -50.94214 | -102.03586 | 38516 ft | 495 kts | 240° |
| 2026-04-29 07:34 | -50.97776 | -102.12973 | 38523 ft | 495 kts | 240° |
| 2026-04-29 07:35 | -51.01317 | -102.22316 | 38529 ft | 495 kts | 240° |
| 2026-04-29 07:35 | -51.04858 | -102.31663 | 38534 ft | 495 kts | 240° |
| 2026-04-29 07:36 | -51.08419 | -102.41070 | 38538 ft | 495 kts | 240° |
| 2026-04-29 07:36 | -51.11959 | -102.50430 | 38542 ft | 495 kts | 240° |
| 2026-04-29 07:37 | -51.15504 | -102.59809 | 38546 ft | 495 kts | 240° |
| 2026-04-29 07:37 | -51.19065 | -102.69240 | 38550 ft | 495 kts | 240° |
| 2026-04-29 07:38 | -51.22601 | -102.78611 | 38556 ft | 495 kts | 240° |
| 2026-04-29 07:38 | -51.26154 | -102.88034 | 38562 ft | 495 kts | 240° |
| 2026-04-29 07:39 | -51.29700 | -102.97444 | 38568 ft | 495 kts | 240° |
| 2026-04-29 07:39 | -51.33251 | -103.06876 | 38574 ft | 495 kts | 240° |
| 2026-04-29 07:40 | -51.36794 | -103.16296 | 38579 ft | 495 kts | 240° |
| 2026-04-29 07:40 | -51.40341 | -103.25732 | 38584 ft | 495 kts | 240° |
| 2026-04-29 07:41 | -51.43882 | -103.35160 | 38588 ft | 495 kts | 240° |
| 2026-04-29 07:41 | -51.47441 | -103.44640 | 38591 ft | 495 kts | 240° |
| 2026-04-29 07:42 | -51.50966 | -103.54041 | 38596 ft | 495 kts | 240° |
| 2026-04-29 07:42 | -51.54520 | -103.63525 | 38601 ft | 495 kts | 240° |
| 2026-04-29 07:43 | -51.58072 | -103.73012 | 38607 ft | 495 kts | 240° |
| 2026-04-29 07:43 | -51.61626 | -103.82509 | 38613 ft | 495 kts | 240° |
| 2026-04-29 07:44 | -51.65177 | -103.92009 | 38619 ft | 495 kts | 240° |
| 2026-04-29 07:44 | -51.68718 | -104.01487 | 38624 ft | 495 kts | 240° |
| 2026-04-29 07:45 | -51.72261 | -104.10980 | 38629 ft | 495 kts | 240° |
| 2026-04-29 07:45 | -51.75829 | -104.20544 | 38633 ft | 495 kts | 240° |
| 2026-04-29 07:46 | -51.79362 | -104.30024 | 38636 ft | 495 kts | 240° |
| 2026-04-29 07:46 | -51.82918 | -104.39574 | 38641 ft | 495 kts | 240° |
| 2026-04-29 07:47 | -51.86470 | -104.49121 | 38646 ft | 495 kts | 240° |
| 2026-04-29 07:47 | -51.90023 | -104.58676 | 38652 ft | 495 kts | 240° |
| 2026-04-29 07:48 | -51.93566 | -104.68214 | 38658 ft | 495 kts | 240° |
| 2026-04-29 07:48 | -51.97105 | -104.77746 | 38664 ft | 495 kts | 240° |
| 2026-04-29 07:49 | -52.00656 | -104.87321 | 38669 ft | 495 kts | 240° |
| 2026-04-29 07:49 | -52.04217 | -104.96929 | 38674 ft | 495 kts | 240° |
| 2026-04-29 07:50 | -52.07769 | -105.06521 | 38678 ft | 495 kts | 240° |
| 2026-04-29 07:50 | -52.11298 | -105.16057 | 38682 ft | 495 kts | 240° |
| 2026-04-29 07:51 | -52.14853 | -105.25671 | 38686 ft | 495 kts | 240° |
| 2026-04-29 07:51 | -52.18400 | -105.35272 | 38691 ft | 495 kts | 240° |
| 2026-04-29 07:52 | -52.21951 | -105.44890 | 38696 ft | 495 kts | 240° |
| 2026-04-29 07:52 | -52.25509 | -105.54539 | 38702 ft | 495 kts | 240° |
| 2026-04-29 07:53 | -52.29052 | -105.64151 | 38708 ft | 495 kts | 240° |
| 2026-04-29 07:53 | -52.32591 | -105.73759 | 38714 ft | 495 kts | 240° |
| 2026-04-29 07:54 | -52.35567 | -105.81849 | 38718 ft | 495 kts | 240° |
| 2026-04-29 07:54 | -52.39097 | -105.91447 | 38722 ft | 495 kts | 240° |
| 2026-04-29 07:55 | -52.42661 | -106.01147 | 38726 ft | 495 kts | 240° |
| 2026-04-29 07:55 | -52.46204 | -106.10796 | 38731 ft | 495 kts | 240° |
| 2026-04-29 07:56 | -52.49762 | -106.20495 | 38735 ft | 495 kts | 240° |
| 2026-04-29 07:56 | -52.53317 | -106.30194 | 38741 ft | 495 kts | 240° |
| 2026-04-29 07:57 | -52.56864 | -106.39879 | 38746 ft | 495 kts | 240° |
| 2026-04-29 07:57 | -52.60406 | -106.49557 | 38752 ft | 495 kts | 240° |
| 2026-04-29 07:58 | -52.63966 | -106.59294 | 38757 ft | 495 kts | 240° |
| 2026-04-29 07:58 | -52.67512 | -106.68999 | 38763 ft | 495 kts | 240° |
| 2026-04-29 07:59 | -52.71042 | -106.78671 | 38767 ft | 495 kts | 240° |
| 2026-04-29 07:59 | -52.74611 | -106.88455 | 38771 ft | 495 kts | 240° |
| 2026-04-29 08:00 | -52.78140 | -106.98135 | 38775 ft | 495 kts | 240° |
| 2026-04-29 08:00 | -52.81700 | -107.07912 | 38780 ft | 495 kts | 240° |
| 2026-04-29 08:01 | -52.85255 | -107.17681 | 38785 ft | 495 kts | 240° |
| 2026-04-29 08:01 | -52.88797 | -107.27424 | 38791 ft | 495 kts | 240° |
| 2026-04-29 08:02 | -52.92335 | -107.37164 | 38796 ft | 495 kts | 240° |
| 2026-04-29 08:02 | -52.95902 | -107.46988 | 38801 ft | 495 kts | 240° |
| 2026-04-29 08:03 | -52.99448 | -107.56767 | 38806 ft | 495 kts | 240° |
| 2026-04-29 08:03 | -53.02979 | -107.66512 | 38811 ft | 495 kts | 240° |
| 2026-04-29 08:04 | -53.06537 | -107.76338 | 38816 ft | 495 kts | 240° |
| 2026-04-29 08:04 | -53.10089 | -107.86155 | 38821 ft | 495 kts | 240° |
| 2026-04-29 08:05 | -53.13633 | -107.95958 | 38826 ft | 495 kts | 240° |
| 2026-04-29 08:05 | -53.17188 | -108.05801 | 38830 ft | 495 kts | 240° |
| 2026-04-29 08:06 | -53.20740 | -108.15642 | 38835 ft | 495 kts | 240° |
| 2026-04-29 08:06 | -53.24276 | -108.25449 | 38840 ft | 495 kts | 240° |
| 2026-04-29 08:07 | -53.27827 | -108.35304 | 38845 ft | 495 kts | 240° |
| 2026-04-29 08:07 | -53.31362 | -108.45125 | 38851 ft | 495 kts | 240° |
| 2026-04-29 08:08 | -53.34924 | -108.55026 | 38856 ft | 495 kts | 240° |
| 2026-04-29 08:08 | -53.38468 | -108.64888 | 38861 ft | 495 kts | 240° |
| 2026-04-29 08:09 | -53.42028 | -108.74802 | 38866 ft | 495 kts | 240° |
| 2026-04-29 08:09 | -53.45563 | -108.84654 | 38870 ft | 495 kts | 240° |
| 2026-04-29 08:10 | -53.49128 | -108.94598 | 38875 ft | 495 kts | 240° |
| 2026-04-29 08:10 | -53.52664 | -109.04468 | 38879 ft | 495 kts | 240° |
| 2026-04-29 08:11 | -53.56208 | -109.14371 | 38884 ft | 495 kts | 240° |
| 2026-04-29 08:11 | -53.59765 | -109.24318 | 38890 ft | 495 kts | 240° |
| 2026-04-29 08:12 | -53.63299 | -109.34209 | 38895 ft | 495 kts | 240° |
| 2026-04-29 08:12 | -53.66853 | -109.44163 | 38901 ft | 495 kts | 240° |
| 2026-04-29 08:13 | -53.70398 | -109.54102 | 38906 ft | 495 kts | 240° |
| 2026-04-29 08:13 | -53.73961 | -109.64099 | 38910 ft | 495 kts | 240° |
| 2026-04-29 08:14 | -53.77490 | -109.74010 | 38915 ft | 495 kts | 240° |
| 2026-04-29 08:14 | -53.81041 | -109.83989 | 38919 ft | 495 kts | 240° |
| 2026-04-29 08:15 | -53.84594 | -109.93986 | 38923 ft | 495 kts | 240° |
| 2026-04-29 08:15 | -53.88137 | -110.03958 | 38928 ft | 495 kts | 240° |
| 2026-04-29 08:16 | -53.91692 | -110.13976 | 38933 ft | 495 kts | 240° |
| 2026-04-29 08:16 | -53.95230 | -110.23954 | 38939 ft | 495 kts | 240° |
| 2026-04-29 08:17 | -53.98784 | -110.33986 | 38944 ft | 495 kts | 240° |
| 2026-04-29 08:17 | -54.02349 | -110.44056 | 38949 ft | 495 kts | 240° |
| 2026-04-29 08:18 | -54.05890 | -110.54068 | 38954 ft | 495 kts | 240° |
| 2026-04-29 08:18 | -54.09438 | -110.64107 | 38959 ft | 495 kts | 240° |
| 2026-04-29 08:19 | -54.12978 | -110.74133 | 38964 ft | 495 kts | 240° |
| 2026-04-29 08:19 | -54.16541 | -110.84234 | 38968 ft | 495 kts | 240° |
| 2026-04-29 08:20 | -54.20079 | -110.94272 | 38973 ft | 495 kts | 240° |
| 2026-04-29 08:20 | -54.23620 | -111.04326 | 38977 ft | 495 kts | 240° |
| 2026-04-29 08:21 | -54.27171 | -111.14418 | 38983 ft | 495 kts | 240° |
| 2026-04-29 08:21 | -54.30714 | -111.24495 | 38988 ft | 495 kts | 240° |
| 2026-04-29 08:22 | -54.34267 | -111.34610 | 38993 ft | 495 kts | 240° |
| 2026-04-29 08:22 | -54.37816 | -111.44722 | 38998 ft | 495 kts | 240° |
| 2026-04-29 08:23 | -54.41361 | -111.54830 | 39003 ft | 495 kts | 240° |
| 2026-04-29 08:23 | -54.44917 | -111.64980 | 39008 ft | 495 kts | 240° |
| 2026-04-29 08:24 | -54.48477 | -111.75150 | 39012 ft | 495 kts | 240° |
| 2026-04-29 08:24 | -54.52007 | -111.85243 | 39017 ft | 495 kts | 240° |
| 2026-04-29 08:25 | -54.55564 | -111.95422 | 39022 ft | 495 kts | 240° |
| 2026-04-29 08:25 | -54.59123 | -112.05616 | 39028 ft | 495 kts | 240° |
| 2026-04-29 08:26 | -54.62665 | -112.15769 | 39034 ft | 495 kts | 240° |
| 2026-04-29 08:26 | -54.65620 | -112.24246 | 39039 ft | 495 kts | 240° |
| 2026-04-29 08:27 | -54.69180 | -112.34469 | 39044 ft | 495 kts | 240° |
| 2026-04-29 08:27 | -54.73307 | -112.46331 | 39050 ft | 495 kts | 240° |
| 2026-04-29 08:28 | -54.76270 | -112.54854 | 39054 ft | 495 kts | 240° |
| 2026-04-29 08:28 | -54.79823 | -112.65080 | 39058 ft | 495 kts | 240° |
| 2026-04-29 08:29 | -54.83369 | -112.75299 | 39063 ft | 495 kts | 240° |
| 2026-04-29 08:29 | -54.86905 | -112.85495 | 39068 ft | 495 kts | 240° |
| 2026-04-29 08:30 | -54.92236 | -113.00887 | 39076 ft | 495 kts | 240° |
| 2026-04-29 08:31 | -54.95771 | -113.11102 | 39082 ft | 495 kts | 240° |
| 2026-04-29 08:31 | -54.99339 | -113.21426 | 39087 ft | 495 kts | 240° |
| 2026-04-29 08:32 | -55.02877 | -113.31669 | 39092 ft | 495 kts | 240° |
| 2026-04-29 08:32 | -55.06429 | -113.41961 | 39097 ft | 495 kts | 240° |
| 2026-04-29 08:33 | -55.09976 | -113.52248 | 39102 ft | 495 kts | 240° |
| 2026-04-29 08:33 | -55.13530 | -113.62567 | 39106 ft | 495 kts | 240° |
| 2026-04-29 08:34 | -55.17067 | -113.72844 | 39111 ft | 495 kts | 240° |
| 2026-04-29 08:34 | -55.20622 | -113.83182 | 39116 ft | 495 kts | 240° |
| 2026-04-29 08:35 | -55.24153 | -113.93460 | 39122 ft | 495 kts | 240° |
| 2026-04-29 08:35 | -55.27723 | -114.03862 | 39128 ft | 495 kts | 240° |
| 2026-04-29 08:36 | -55.31254 | -114.14157 | 39133 ft | 495 kts | 240° |
| 2026-04-29 08:36 | -55.34811 | -114.24538 | 39139 ft | 495 kts | 240° |
| 2026-04-29 08:37 | -55.38353 | -114.34887 | 39144 ft | 495 kts | 240° |
| 2026-04-29 08:37 | -55.41907 | -114.45276 | 39148 ft | 495 kts | 240° |
| 2026-04-29 08:38 | -55.45474 | -114.55715 | 39153 ft | 495 kts | 240° |
| 2026-04-29 08:38 | -55.49006 | -114.66062 | 39157 ft | 495 kts | 240° |
| 2026-04-29 08:39 | -55.52556 | -114.76471 | 39162 ft | 495 kts | 240° |
| 2026-04-29 08:39 | -55.56101 | -114.86871 | 39167 ft | 495 kts | 240° |
| 2026-04-29 08:40 | -55.59656 | -114.97313 | 39173 ft | 495 kts | 240° |
| 2026-04-29 08:40 | -55.63201 | -115.07735 | 39178 ft | 495 kts | 240° |
| 2026-04-29 08:41 | -55.66739 | -115.18146 | 39184 ft | 495 kts | 240° |
| 2026-04-29 08:41 | -55.70281 | -115.28576 | 39190 ft | 495 kts | 240° |
| 2026-04-29 08:42 | -55.73838 | -115.39061 | 39195 ft | 495 kts | 240° |
| 2026-04-29 08:42 | -55.77391 | -115.49544 | 39199 ft | 495 kts | 240° |
| 2026-04-29 08:43 | -55.80927 | -115.59985 | 39204 ft | 495 kts | 240° |
| 2026-04-29 08:43 | -55.84489 | -115.70515 | 39208 ft | 495 kts | 240° |
| 2026-04-29 08:44 | -55.88028 | -115.80985 | 39213 ft | 495 kts | 240° |
| 2026-04-29 08:44 | -55.91581 | -115.91506 | 39218 ft | 495 kts | 240° |
| 2026-04-29 08:45 | -55.95118 | -116.01989 | 39224 ft | 495 kts | 240° |
| 2026-04-29 08:45 | -55.98672 | -116.12532 | 39230 ft | 495 kts | 240° |
| 2026-04-29 08:46 | -56.02225 | -116.23082 | 39235 ft | 495 kts | 240° |
| 2026-04-29 08:46 | -56.05763 | -116.33597 | 39240 ft | 495 kts | 240° |
| 2026-04-29 08:47 | -56.09318 | -116.44172 | 39245 ft | 495 kts | 240° |
| 2026-04-29 08:47 | -56.12846 | -116.54678 | 39249 ft | 495 kts | 240° |
| 2026-04-29 08:48 | -56.16401 | -116.65271 | 39254 ft | 495 kts | 240° |
| 2026-04-29 08:48 | -56.19945 | -116.75843 | 39258 ft | 495 kts | 240° |
| 2026-04-29 08:49 | -56.23494 | -116.86441 | 39263 ft | 495 kts | 240° |
| 2026-04-29 08:49 | -56.27036 | -116.97026 | 39269 ft | 495 kts | 240° |
| 2026-04-29 08:50 | -56.30593 | -117.07667 | 39274 ft | 495 kts | 240° |
| 2026-04-29 08:50 | -56.34140 | -117.18285 | 39281 ft | 495 kts | 240° |
| 2026-04-29 08:51 | -56.37688 | -117.28918 | 39288 ft | 495 kts | 240° |
| 2026-04-29 08:51 | -56.41234 | -117.39556 | 39298 ft | 495 kts | 240° |
| 2026-04-29 08:52 | -56.44788 | -117.50226 | 39311 ft | 495 kts | 240° |
| 2026-04-29 08:52 | -56.48325 | -117.60855 | 39324 ft | 495 kts | 240° |
| 2026-04-29 08:53 | -56.51876 | -117.71539 | 39338 ft | 495 kts | 240° |
| 2026-04-29 08:53 | -56.55418 | -117.82203 | 39351 ft | 495 kts | 240° |
| 2026-04-29 08:54 | -56.58978 | -117.92932 | 39360 ft | 495 kts | 240° |
| 2026-04-29 08:54 | -56.62514 | -118.03598 | 39368 ft | 495 kts | 240° |
| 2026-04-29 08:55 | -56.66056 | -118.14293 | 39375 ft | 495 kts | 240° |
| 2026-04-29 08:55 | -56.69603 | -118.25013 | 39382 ft | 495 kts | 240° |
| 2026-04-29 08:56 | -56.73160 | -118.35771 | 39391 ft | 495 kts | 240° |
| 2026-04-29 08:56 | -56.76701 | -118.46494 | 39402 ft | 495 kts | 240° |
| 2026-04-29 08:57 | -56.80244 | -118.57233 | 39414 ft | 495 kts | 240° |
| 2026-04-29 08:57 | -56.83802 | -118.68026 | 39427 ft | 495 kts | 240° |
| 2026-04-29 08:58 | -56.87338 | -118.78764 | 39440 ft | 495 kts | 240° |
| 2026-04-29 08:58 | -56.90901 | -118.89594 | 39451 ft | 495 kts | 240° |
| 2026-04-29 08:59 | -56.94438 | -119.00355 | 39460 ft | 495 kts | 240° |
| 2026-04-29 08:59 | -56.97990 | -119.11170 | 39468 ft | 495 kts | 240° |
| 2026-04-29 09:00 | -57.01539 | -119.21990 | 39475 ft | 495 kts | 240° |
| 2026-04-29 09:00 | -57.05087 | -119.32815 | 39483 ft | 495 kts | 240° |
| 2026-04-29 09:01 | -57.08635 | -119.43647 | 39493 ft | 495 kts | 240° |
| 2026-04-29 09:01 | -57.12182 | -119.54491 | 39504 ft | 495 kts | 240° |
| 2026-04-29 09:02 | -57.15722 | -119.65323 | 39517 ft | 495 kts | 240° |
| 2026-04-29 09:02 | -57.19279 | -119.76217 | 39529 ft | 495 kts | 240° |
| 2026-04-29 09:03 | -57.22231 | -119.85268 | 39539 ft | 495 kts | 240° |
| 2026-04-29 09:03 | -57.25783 | -119.96165 | 39550 ft | 495 kts | 240° |
| 2026-04-29 09:04 | -57.29337 | -120.07080 | 39558 ft | 495 kts | 240° |
| 2026-04-29 09:04 | -57.32895 | -120.18017 | 39566 ft | 495 kts | 240° |
| 2026-04-29 09:05 | -57.36444 | -120.28937 | 39574 ft | 495 kts | 240° |
| 2026-04-29 09:05 | -57.39980 | -120.39828 | 39583 ft | 495 kts | 240° |
| 2026-04-29 09:06 | -57.43533 | -120.50781 | 39593 ft | 495 kts | 240° |
| 2026-04-29 09:06 | -57.47084 | -120.61739 | 39605 ft | 495 kts | 240° |
| 2026-04-29 09:07 | -57.50610 | -120.72633 | 39617 ft | 495 kts | 240° |
| 2026-04-29 09:07 | -57.54159 | -120.83606 | 39628 ft | 495 kts | 240° |
| 2026-04-29 09:08 | -57.57714 | -120.94608 | 39639 ft | 495 kts | 240° |
| 2026-04-29 09:08 | -57.61257 | -121.05583 | 39648 ft | 495 kts | 240° |
| 2026-04-29 09:09 | -57.64805 | -121.16587 | 39656 ft | 495 kts | 240° |
| 2026-04-29 09:09 | -57.68365 | -121.27639 | 39664 ft | 495 kts | 240° |
| 2026-04-29 09:10 | -57.71916 | -121.38672 | 39673 ft | 495 kts | 240° |
| 2026-04-29 09:10 | -57.75464 | -121.49707 | 39683 ft | 495 kts | 240° |
| 2026-04-29 09:11 | -57.79018 | -121.60771 | 39694 ft | 495 kts | 240° |
| 2026-04-29 09:11 | -57.82547 | -121.71769 | 39706 ft | 495 kts | 240° |
| 2026-04-29 09:12 | -57.86119 | -121.82909 | 39718 ft | 495 kts | 240° |
| 2026-04-29 09:12 | -57.89652 | -121.93940 | 39728 ft | 495 kts | 240° |
| 2026-04-29 09:13 | -57.93201 | -122.05033 | 39738 ft | 495 kts | 240° |
| 2026-04-29 09:13 | -57.96754 | -122.16148 | 39746 ft | 495 kts | 240° |
| 2026-04-29 09:14 | -58.00307 | -122.27276 | 39755 ft | 495 kts | 240° |
| 2026-04-29 09:14 | -58.03836 | -122.38339 | 39764 ft | 495 kts | 240° |
| 2026-04-29 09:15 | -58.07380 | -122.49460 | 39773 ft | 495 kts | 240° |
| 2026-04-29 09:15 | -58.10947 | -122.60663 | 39784 ft | 495 kts | 240° |
| 2026-04-29 09:16 | -58.14479 | -122.71768 | 39795 ft | 495 kts | 240° |
| 2026-04-29 09:16 | -58.18046 | -122.82994 | 39806 ft | 495 kts | 240° |
| 2026-04-29 09:17 | -58.21595 | -122.94176 | 39817 ft | 495 kts | 240° |
| 2026-04-29 09:17 | -58.25141 | -123.05360 | 39826 ft | 495 kts | 240° |
| 2026-04-29 09:18 | -58.28682 | -123.16539 | 39835 ft | 495 kts | 240° |
| 2026-04-29 09:18 | -58.32227 | -123.27741 | 39844 ft | 495 kts | 240° |
| 2026-04-29 09:19 | -58.35776 | -123.38967 | 39853 ft | 495 kts | 240° |
| 2026-04-29 09:19 | -58.39324 | -123.50199 | 39863 ft | 495 kts | 240° |
| 2026-04-29 09:20 | -58.42871 | -123.61441 | 39874 ft | 495 kts | 240° |
| 2026-04-29 09:20 | -58.46423 | -123.72711 | 39885 ft | 495 kts | 240° |
| 2026-04-29 09:21 | -58.49971 | -123.83978 | 39896 ft | 495 kts | 240° |
| 2026-04-29 09:21 | -58.53531 | -123.95297 | 39906 ft | 495 kts | 240° |
| 2026-04-29 09:22 | -58.57063 | -124.06537 | 39915 ft | 495 kts | 240° |
| 2026-04-29 09:22 | -58.60613 | -124.17846 | 39924 ft | 495 kts | 240° |
| 2026-04-29 09:23 | -58.64177 | -124.29209 | 39933 ft | 495 kts | 240° |
| 2026-04-29 09:23 | -58.67727 | -124.40541 | 39942 ft | 495 kts | 240° |
| 2026-04-29 09:24 | -58.71271 | -124.51866 | 39952 ft | 495 kts | 240° |
| 2026-04-29 09:24 | -58.74821 | -124.63219 | 39962 ft | 495 kts | 240° |
| 2026-04-29 09:25 | -58.78380 | -124.74614 | 39973 ft | 495 kts | 240° |
| 2026-04-29 09:25 | -58.81939 | -124.86023 | 39984 ft | 495 kts | 240° |
| 2026-04-29 09:26 | -58.85494 | -124.97428 | 39994 ft | 495 kts | 240° |
| 2026-04-29 09:26 | -58.89040 | -125.08816 | 40003 ft | 495 kts | 240° |
| 2026-04-29 09:27 | -58.92580 | -125.20195 | 40012 ft | 495 kts | 240° |
| 2026-04-29 09:27 | -58.96122 | -125.31594 | 40022 ft | 495 kts | 240° |
| 2026-04-29 09:28 | -58.99678 | -125.43052 | 40032 ft | 495 kts | 240° |
| 2026-04-29 09:28 | -59.03211 | -125.54444 | 40043 ft | 495 kts | 240° |
| 2026-04-29 09:29 | -59.06770 | -125.65934 | 40053 ft | 495 kts | 240° |
| 2026-04-29 09:29 | -59.12094 | -125.83142 | 40069 ft | 495 kts | 240° |
| 2026-04-29 09:30 | -59.15633 | -125.94598 | 40080 ft | 495 kts | 240° |
| 2026-04-29 09:30 | -59.19179 | -126.06087 | 40089 ft | 495 kts | 240° |
| 2026-04-29 09:31 | -59.22733 | -126.17613 | 40099 ft | 495 kts | 240° |
| 2026-04-29 09:31 | -59.26275 | -126.29113 | 40109 ft | 495 kts | 240° |
| 2026-04-29 09:32 | -59.29834 | -126.40679 | 40119 ft | 495 kts | 240° |
| 2026-04-29 09:32 | -59.33373 | -126.52195 | 40130 ft | 495 kts | 240° |
| 2026-04-29 09:33 | -59.36930 | -126.63780 | 40140 ft | 495 kts | 240° |
| 2026-04-29 09:33 | -59.40484 | -126.75364 | 40151 ft | 495 kts | 240° |
| 2026-04-29 09:34 | -59.44029 | -126.86936 | 40162 ft | 495 kts | 240° |
| 2026-04-29 09:34 | -59.47587 | -126.98558 | 40172 ft | 495 kts | 240° |
| 2026-04-29 09:35 | -59.50545 | -127.08231 | 40180 ft | 495 kts | 240° |
| 2026-04-29 09:35 | -59.54092 | -127.19843 | 40189 ft | 495 kts | 240° |
| 2026-04-29 09:36 | -59.57626 | -127.31422 | 40198 ft | 495 kts | 240° |
| 2026-04-29 09:36 | -59.61185 | -127.43097 | 40209 ft | 495 kts | 240° |
| 2026-04-29 09:37 | -59.64735 | -127.54756 | 40219 ft | 495 kts | 240° |
| 2026-04-29 09:37 | -59.68285 | -127.66426 | 40230 ft | 495 kts | 240° |
| 2026-04-29 09:38 | -59.71826 | -127.78079 | 40240 ft | 495 kts | 240° |
| 2026-04-29 09:38 | -59.75377 | -127.89776 | 40250 ft | 495 kts | 240° |
| 2026-04-29 09:39 | -59.78905 | -128.01410 | 40260 ft | 495 kts | 240° |
| 2026-04-29 09:39 | -59.82459 | -128.13142 | 40271 ft | 495 kts | 240° |
| 2026-04-29 09:40 | -59.86027 | -128.24933 | 40281 ft | 495 kts | 240° |
| 2026-04-29 09:40 | -59.89566 | -128.36643 | 40291 ft | 495 kts | 240° |
| 2026-04-29 09:41 | -59.93112 | -128.48386 | 40301 ft | 495 kts | 240° |
| 2026-04-29 09:41 | -59.96654 | -128.60130 | 40310 ft | 495 kts | 240° |
| 2026-04-29 09:42 | -60.00200 | -128.71896 | 40320 ft | 495 kts | 240° |
| 2026-04-29 09:42 | -60.03755 | -128.83709 | 40330 ft | 495 kts | 240° |
| 2026-04-29 09:43 | -60.07303 | -128.95510 | 40340 ft | 495 kts | 240° |
| 2026-04-29 09:43 | -60.10841 | -129.07289 | 40351 ft | 495 kts | 240° |
| 2026-04-29 09:44 | -60.14386 | -129.19104 | 40361 ft | 495 kts | 240° |
| 2026-04-29 09:44 | -60.17944 | -129.30977 | 40372 ft | 495 kts | 240° |
| 2026-04-29 09:45 | -60.21496 | -129.42845 | 40382 ft | 495 kts | 240° |
| 2026-04-29 09:45 | -60.25051 | -129.54732 | 40391 ft | 495 kts | 240° |
| 2026-04-29 09:46 | -60.28595 | -129.66595 | 40401 ft | 495 kts | 240° |
| 2026-04-29 09:46 | -60.32147 | -129.78498 | 40411 ft | 495 kts | 240° |
| 2026-04-29 09:47 | -60.35672 | -129.90326 | 40421 ft | 495 kts | 240° |
| 2026-04-29 09:47 | -60.39234 | -130.02290 | 40431 ft | 495 kts | 240° |
| 2026-04-29 09:48 | -60.42780 | -130.14209 | 40441 ft | 495 kts | 240° |
| 2026-04-29 09:48 | -60.46332 | -130.26167 | 40451 ft | 495 kts | 240° |
| 2026-04-29 09:49 | -60.49881 | -130.38126 | 40461 ft | 495 kts | 240° |
| 2026-04-29 09:49 | -60.53420 | -130.50064 | 40471 ft | 495 kts | 240° |
| 2026-04-29 09:50 | -60.56980 | -130.62086 | 40480 ft | 495 kts | 240° |
| 2026-04-29 09:50 | -60.60519 | -130.74051 | 40490 ft | 495 kts | 240° |
| 2026-04-29 09:51 | -60.64070 | -130.86069 | 40501 ft | 495 kts | 240° |
| 2026-04-29 09:51 | -60.67615 | -130.98079 | 40511 ft | 495 kts | 240° |
| 2026-04-29 09:52 | -60.71177 | -131.10159 | 40521 ft | 495 kts | 240° |
| 2026-04-29 09:52 | -60.74714 | -131.22170 | 40532 ft | 495 kts | 240° |
| 2026-04-29 09:53 | -60.78272 | -131.34267 | 40542 ft | 495 kts | 240° |
| 2026-04-29 09:53 | -60.81815 | -131.46324 | 40552 ft | 495 kts | 240° |
| 2026-04-29 09:54 | -60.85352 | -131.58375 | 40561 ft | 495 kts | 240° |
| 2026-04-29 09:54 | -60.88911 | -131.70513 | 40571 ft | 495 kts | 240° |
| 2026-04-29 09:55 | -60.92468 | -131.82657 | 40580 ft | 495 kts | 240° |
| 2026-04-29 09:55 | -60.95999 | -131.94728 | 40590 ft | 495 kts | 240° |
| 2026-04-29 09:56 | -60.99563 | -132.06924 | 40599 ft | 495 kts | 240° |
| 2026-04-29 09:56 | -61.03113 | -132.19087 | 40609 ft | 495 kts | 240° |
| 2026-04-29 09:57 | -61.06654 | -132.31232 | 40620 ft | 495 kts | 240° |
| 2026-04-29 09:57 | -61.10212 | -132.43448 | 40630 ft | 495 kts | 240° |
| 2026-04-29 09:58 | -61.13757 | -132.55634 | 40641 ft | 495 kts | 240° |
| 2026-04-29 09:58 | -61.17292 | -132.67800 | 40651 ft | 495 kts | 240° |
| 2026-04-29 09:59 | -61.20846 | -132.80044 | 40660 ft | 495 kts | 240° |
| 2026-04-29 09:59 | -61.24393 | -132.92278 | 40670 ft | 495 kts | 240° |
| 2026-04-29 10:00 | -61.27946 | -133.04546 | 40679 ft | 495 kts | 240° |
| 2026-04-29 10:00 | -61.31489 | -133.16793 | 40689 ft | 495 kts | 240° |
| 2026-04-29 10:01 | -61.35036 | -133.29070 | 40699 ft | 495 kts | 240° |
| 2026-04-29 10:01 | -61.38578 | -133.41343 | 40709 ft | 495 kts | 240° |
| 2026-04-29 10:02 | -61.42133 | -133.53672 | 40719 ft | 495 kts | 240° |
| 2026-04-29 10:02 | -61.45680 | -133.65989 | 40729 ft | 495 kts | 240° |
| 2026-04-29 10:03 | -61.49226 | -133.78316 | 40739 ft | 495 kts | 240° |
| 2026-04-29 10:03 | -61.52796 | -133.90743 | 40749 ft | 495 kts | 240° |
| 2026-04-29 10:04 | -61.56333 | -134.03069 | 40758 ft | 495 kts | 240° |
| 2026-04-29 10:04 | -61.59891 | -134.15480 | 40767 ft | 495 kts | 240° |
| 2026-04-29 10:05 | -61.63432 | -134.27848 | 40777 ft | 495 kts | 240° |
| 2026-04-29 10:05 | -61.66973 | -134.40229 | 40786 ft | 495 kts | 240° |
| 2026-04-29 10:06 | -61.70539 | -134.52713 | 40797 ft | 495 kts | 240° |
| 2026-04-29 10:06 | -61.74080 | -134.65123 | 40808 ft | 495 kts | 240° |
| 2026-04-29 10:07 | -61.77614 | -134.77520 | 40818 ft | 495 kts | 240° |
| 2026-04-29 10:07 | -61.81163 | -134.89986 | 40828 ft | 495 kts | 240° |
| 2026-04-29 10:08 | -61.84718 | -135.02490 | 40838 ft | 495 kts | 240° |
| 2026-04-29 10:08 | -61.88279 | -135.15027 | 40847 ft | 495 kts | 240° |
| 2026-04-29 10:09 | -61.91215 | -135.25376 | 40854 ft | 495 kts | 240° |
| 2026-04-29 10:09 | -61.95357 | -135.39991 | 40864 ft | 495 kts | 240° |
| 2026-04-29 10:10 | -61.98905 | -135.52525 | 40874 ft | 495 kts | 240° |
| 2026-04-29 10:10 | -62.01859 | -135.62975 | 40883 ft | 495 kts | 240° |
| 2026-04-29 10:11 | -62.05402 | -135.75520 | 40893 ft | 495 kts | 240° |
| 2026-04-29 10:11 | -62.08955 | -135.88114 | 40904 ft | 495 kts | 240° |
| 2026-04-29 10:12 | -62.12496 | -136.00681 | 40914 ft | 495 kts | 240° |
| 2026-04-29 10:12 | -62.16056 | -136.13329 | 40924 ft | 495 kts | 240° |
| 2026-04-29 10:13 | -62.19607 | -136.25961 | 40933 ft | 495 kts | 240° |
| 2026-04-29 10:13 | -62.23145 | -136.38560 | 40942 ft | 495 kts | 240° |
| 2026-04-29 10:14 | -62.26687 | -136.51192 | 40951 ft | 495 kts | 240° |
| 2026-04-29 10:14 | -62.30253 | -136.63920 | 40960 ft | 495 kts | 240° |
| 2026-04-29 10:15 | -62.33810 | -136.76634 | 40970 ft | 495 kts | 240° |
| 2026-04-29 10:15 | -62.37330 | -136.89227 | 40981 ft | 495 kts | 240° |
| 2026-04-29 10:16 | -62.40889 | -137.01977 | 40992 ft | 495 kts | 240° |
| 2026-04-29 10:16 | -62.44449 | -137.14746 | 41001 ft | 495 kts | 240° |
| 2026-04-29 10:17 | -62.48000 | -137.27499 | 41011 ft | 495 kts | 240° |
| 2026-04-29 10:17 | -62.51539 | -137.40223 | 41020 ft | 495 kts | 240° |
| 2026-04-29 10:18 | -62.55081 | -137.52973 | 41030 ft | 495 kts | 240° |
| 2026-04-29 10:18 | -62.58629 | -137.65760 | 41039 ft | 495 kts | 240° |
| 2026-04-29 10:19 | -62.62186 | -137.78591 | 41050 ft | 495 kts | 240° |
| 2026-04-29 10:19 | -62.65730 | -137.91395 | 41061 ft | 495 kts | 240° |
| 2026-04-29 10:20 | -62.69266 | -138.04183 | 41072 ft | 495 kts | 240° |
| 2026-04-29 10:20 | -62.72822 | -138.17059 | 41083 ft | 495 kts | 240° |
| 2026-04-29 10:21 | -62.76380 | -138.29959 | 41093 ft | 495 kts | 240° |
| 2026-04-29 10:21 | -62.79921 | -138.42815 | 41103 ft | 495 kts | 240° |
| 2026-04-29 10:22 | -62.83465 | -138.55695 | 41112 ft | 495 kts | 240° |
| 2026-04-29 10:22 | -62.87025 | -138.68648 | 41121 ft | 495 kts | 240° |
| 2026-04-29 10:23 | -62.90585 | -138.81615 | 41131 ft | 495 kts | 240° |
| 2026-04-29 10:23 | -62.94123 | -138.94520 | 41141 ft | 495 kts | 240° |
| 2026-04-29 10:24 | -62.97654 | -139.07415 | 41151 ft | 495 kts | 240° |
| 2026-04-29 10:24 | -63.01221 | -139.20457 | 41162 ft | 495 kts | 240° |
| 2026-04-29 10:25 | -63.04166 | -139.31239 | 41171 ft | 495 kts | 240° |
| 2026-04-29 10:25 | -63.04349 | -139.31909 | 41172 ft | 495 kts | 240° |
| 2026-04-29 10:26 | -63.04361 | -139.31952 | 41172 ft | 495 kts | 240° |